<?xml version='1.0' encoding='UTF-8'?>
<gpx xmlns="http://www.topografix.com/GPX/1/1" creator="www.balnam.be" version="1.1" xmlns:xsi="http://www.w3.org/2001/XMLSchema-instance" xsi:schemaLocation="http://www.topografix.com/GPX/1/1 http://www.topografix.com/GPX/1/1/gpx.xsd">
<trk>
<name>hfmeg1</name>
<cmt>s</cmt>
<desc>Eugies Chemin n°1 </desc>
<link href="https://chemins.be/eugies/chemin/1"/><trkseg>
<trkpt lat="50.384997" lon="3.837672"><time>2026-05-02T17:26:05Z</time></trkpt>
<trkpt lat="50.386776" lon="3.837715"><time>2026-05-02T17:36:05Z</time></trkpt>
<trkpt lat="50.390360" lon="3.841513"><time>2026-05-02T17:46:05Z</time></trkpt>
<trkpt lat="50.394888" lon="3.842114"><time>2026-05-02T17:56:05Z</time></trkpt>
<trkpt lat="50.396407" lon="3.841428"><time>2026-05-02T18:06:05Z</time></trkpt>
</trkseg>
</trk>
<trk>
<name>hfmeg13</name>
<cmt>v</cmt>
<desc>Eugies Chemin n°13 </desc>
<link href="https://chemins.be/eugies/chemin/13"/><trkseg>
<trkpt lat="50.393357" lon="3.869381"><time>2026-05-02T17:26:05Z</time></trkpt>
<trkpt lat="50.393471" lon="3.868705"><time>2026-05-02T17:36:05Z</time></trkpt>
</trkseg>
</trk>
<trk>
<name>hfmeg19</name>
<cmt>v</cmt>
<desc>Eugies Chemin n°19 </desc>
<link href="https://chemins.be/eugies/chemin/19"/><trkseg>
<trkpt lat="50.395397" lon="3.869251"><time>2026-05-02T17:26:05Z</time></trkpt>
<trkpt lat="50.395526" lon="3.869498"><time>2026-05-02T17:36:05Z</time></trkpt>
<trkpt lat="50.395551" lon="3.869711"><time>2026-05-02T17:46:05Z</time></trkpt>
</trkseg>
</trk>
<trk>
<name>hfmeg2</name>
<cmt>v</cmt>
<desc>Eugies Chemin n°2 Chemin de l'Étang / Rue Haute</desc>
<link href="https://chemins.be/eugies/chemin/2"/><trkseg>
<trkpt lat="50.388760" lon="3.902108"><time>2026-05-02T17:26:05Z</time></trkpt>
<trkpt lat="50.388502" lon="3.900611"><time>2026-05-02T17:36:05Z</time></trkpt>
<trkpt lat="50.388739" lon="3.897464"><time>2026-05-02T17:46:05Z</time></trkpt>
<trkpt lat="50.388210" lon="3.895118"><time>2026-05-02T17:56:05Z</time></trkpt>
<trkpt lat="50.389414" lon="3.893716"><time>2026-05-02T18:06:05Z</time></trkpt>
<trkpt lat="50.389656" lon="3.891524"><time>2026-05-02T18:16:05Z</time></trkpt>
</trkseg></trk>
<trk>
<name>hfmeg2</name>
<cmt>r</cmt>
<desc>Eugies Chemin n°2 Chemin de l'Étang / Rue Haute</desc>
<link href="https://chemins.be/eugies/chemin/2"/><trkseg>
<trkpt lat="50.389656" lon="3.891524"><time>2026-05-02T18:16:05Z</time></trkpt>
<trkpt lat="50.389592" lon="3.889621"><time>2026-05-02T18:26:05Z</time></trkpt>
<trkpt lat="50.390312" lon="3.887848"><time>2026-05-02T18:36:05Z</time></trkpt>
<trkpt lat="50.390520" lon="3.887352"><time>2026-05-02T18:46:05Z</time></trkpt>
<trkpt lat="50.390269" lon="3.886966"><time>2026-05-02T18:56:05Z</time></trkpt>
<trkpt lat="50.390205" lon="3.886501"><time>2026-05-02T19:06:05Z</time></trkpt>
<trkpt lat="50.390497" lon="3.885707"><time>2026-05-02T19:16:05Z</time></trkpt>
<trkpt lat="50.390597" lon="3.884956"><time>2026-05-02T19:26:05Z</time></trkpt>
<trkpt lat="50.388559" lon="3.880557"><time>2026-05-02T19:36:05Z</time></trkpt>
<trkpt lat="50.387081" lon="3.877828"><time>2026-05-02T19:46:05Z</time></trkpt>
<trkpt lat="50.386935" lon="3.877560"><time>2026-05-02T19:56:05Z</time></trkpt>
</trkseg></trk>
<trk>
<name>hfmeg2</name>
<cmt>v</cmt>
<desc>Eugies Chemin n°2 Chemin de l'Étang / Rue Haute</desc>
<link href="https://chemins.be/eugies/chemin/2"/><trkseg>
<trkpt lat="50.386935" lon="3.877560"><time>2026-05-02T19:56:05Z</time></trkpt>
<trkpt lat="50.384052" lon="3.873740"><time>2026-05-02T20:06:05Z</time></trkpt>
<trkpt lat="50.382097" lon="3.868473"><time>2026-05-02T20:16:05Z</time></trkpt>
<trkpt lat="50.381454" lon="3.867496"><time>2026-05-02T20:26:05Z</time></trkpt>
</trkseg>
</trk>
<trk>
<name>hfmeg22</name>
<cmt>r</cmt>
<desc>Eugies Chemin n°22 Rue Jean Baptiste Descamps</desc>
<link href="https://chemins.be/eugies/chemin/22"/><trkseg>
<trkpt lat="50.391481" lon="3.883028"><time>2026-05-02T17:26:05Z</time></trkpt>
<trkpt lat="50.392672" lon="3.883860"><time>2026-05-02T17:36:05Z</time></trkpt>
</trkseg></trk>
<trk>
<name>hfmeg22</name>
<cmt>v</cmt>
<desc>Eugies Chemin n°22 Rue Jean Baptiste Descamps</desc>
<link href="https://chemins.be/eugies/chemin/22"/><trkseg>
<trkpt lat="50.392672" lon="3.883860"><time>2026-05-02T17:36:05Z</time></trkpt>
<trkpt lat="50.393979" lon="3.884761"><time>2026-05-02T17:46:05Z</time></trkpt>
<trkpt lat="50.395759" lon="3.886824"><time>2026-05-02T17:56:05Z</time></trkpt>
</trkseg>
</trk>
<trk>
<name>hfmeg23</name>
<cmt>v</cmt>
<desc>Eugies Chemin n°23 </desc>
<link href="https://chemins.be/eugies/chemin/23"/><trkseg>
<trkpt lat="50.384778" lon="3.878208"><time>2026-05-02T17:26:05Z</time></trkpt>
<trkpt lat="50.383339" lon="3.877976"><time>2026-05-02T17:36:05Z</time></trkpt>
<trkpt lat="50.382704" lon="3.878114"><time>2026-05-02T17:46:05Z</time></trkpt>
</trkseg>
</trk>
<trk>
<name>hfmeg24</name>
<cmt>v</cmt>
<desc>Eugies Chemin n°24 Rue du Temple</desc>
<link href="https://chemins.be/eugies/chemin/24"/><trkseg>
<trkpt lat="50.392087" lon="3.894653"><time>2026-05-02T17:26:05Z</time></trkpt>
<trkpt lat="50.390275" lon="3.891296"><time>2026-05-02T17:36:05Z</time></trkpt>
<trkpt lat="50.389813" lon="3.890443"><time>2026-05-02T17:46:05Z</time></trkpt>
<trkpt lat="50.389512" lon="3.889503"><time>2026-05-02T17:56:05Z</time></trkpt>
<trkpt lat="50.386563" lon="3.887185"><time>2026-05-02T18:06:05Z</time></trkpt>
<trkpt lat="50.385809" lon="3.887474"><time>2026-05-02T18:16:05Z</time></trkpt>
<trkpt lat="50.384595" lon="3.887317"><time>2026-05-02T18:26:05Z</time></trkpt>
</trkseg>
</trk>
<trk>
<name>hfmeg25</name>
<cmt>r</cmt>
<desc>Eugies Chemin n°25 Rue de la Taillette</desc>
<link href="https://chemins.be/eugies/chemin/25"/><trkseg>
<trkpt lat="50.388701" lon="3.866242"><time>2026-05-02T17:26:05Z</time></trkpt>
<trkpt lat="50.388377" lon="3.866685"><time>2026-05-02T17:36:05Z</time></trkpt>
<trkpt lat="50.387953" lon="3.866857"><time>2026-05-02T17:46:05Z</time></trkpt>
<trkpt lat="50.387310" lon="3.866435"><time>2026-05-02T17:56:05Z</time></trkpt>
</trkseg>
</trk>
<trk>
<name>hfmeg26</name>
<cmt>r</cmt>
<desc>Eugies Chemin n°26 Rue de la Forêt</desc>
<link href="https://chemins.be/eugies/chemin/26"/><trkseg>
<trkpt lat="50.388643" lon="3.867033"><time>2026-05-02T17:26:05Z</time></trkpt>
<trkpt lat="50.387972" lon="3.868635"><time>2026-05-02T17:36:05Z</time></trkpt>
</trkseg>
</trk>
<trk>
<name>hfmeg27</name>
<cmt>r</cmt>
<desc>Eugies Chemin n°27 Rue Zesse</desc>
<link href="https://chemins.be/eugies/chemin/27"/><trkseg>
<trkpt lat="50.388893" lon="3.867866"><time>2026-05-02T17:26:05Z</time></trkpt>
<trkpt lat="50.388576" lon="3.868263"><time>2026-05-02T17:36:05Z</time></trkpt>
<trkpt lat="50.388444" lon="3.868585"><time>2026-05-02T17:46:05Z</time></trkpt>
</trkseg>
</trk>
<trk>
<name>hfmeg28</name>
<cmt>v</cmt>
<desc>Eugies Sentier n°28 Rue de la Taillette / Allée de Blaugies</desc>
<link href="https://chemins.be/eugies/sentier/28"/><trkseg>
<trkpt lat="50.387296" lon="3.866406"><time>2026-05-02T17:26:05Z</time></trkpt>
<trkpt lat="50.384204" lon="3.863600"><time>2026-05-02T17:36:05Z</time></trkpt>
<trkpt lat="50.383700" lon="3.862653"><time>2026-05-02T17:46:05Z</time></trkpt>
<trkpt lat="50.380158" lon="3.855918"><time>2026-05-02T17:56:05Z</time></trkpt>
</trkseg></trk>
<trk>
<name>hfmeg28</name>
<cmt>d</cmt>
<desc>Eugies Sentier n°28 Rue de la Taillette / Allée de Blaugies</desc>
<link href="https://chemins.be/eugies/sentier/28"/><trkseg>
<trkpt lat="50.380158" lon="3.855918"><time>2026-05-02T17:56:05Z</time></trkpt>
<trkpt lat="50.379344" lon="3.855664"><time>2026-05-02T18:06:05Z</time></trkpt>
<trkpt lat="50.376520" lon="3.856472"><time>2026-05-02T18:16:05Z</time></trkpt>
<trkpt lat="50.372048" lon="3.852813"><time>2026-05-02T18:26:05Z</time></trkpt>
</trkseg></trk>
<trk>
<name>hfmeg28</name>
<cmt>v</cmt>
<desc>Eugies Sentier n°28 Rue de la Taillette / Allée de Blaugies</desc>
<link href="https://chemins.be/eugies/sentier/28"/><trkseg>
<trkpt lat="50.372048" lon="3.852813"><time>2026-05-02T18:26:05Z</time></trkpt>
<trkpt lat="50.369842" lon="3.847650"><time>2026-05-02T18:36:05Z</time></trkpt>
</trkseg>
</trk>
<trk>
<name>hfmeg29</name>
<cmt>v</cmt>
<desc>Eugies Sentier n°29 </desc>
<link href="https://chemins.be/eugies/sentier/29"/><trkseg>
<trkpt lat="50.387556" lon="3.878517"><time>2026-05-02T17:26:05Z</time></trkpt>
<trkpt lat="50.387720" lon="3.878174"><time>2026-05-02T17:36:05Z</time></trkpt>
</trkseg></trk>
<trk>
<name>hfmeg29</name>
<cmt>d</cmt>
<desc>Eugies Sentier n°29 </desc>
<link href="https://chemins.be/eugies/sentier/29"/><trkseg>
<trkpt lat="50.387720" lon="3.878174"><time>2026-05-02T17:36:05Z</time></trkpt>
<trkpt lat="50.387098" lon="3.874494"><time>2026-05-02T17:46:05Z</time></trkpt>
<trkpt lat="50.385497" lon="3.871479"><time>2026-05-02T17:56:05Z</time></trkpt>
<trkpt lat="50.386277" lon="3.868690"><time>2026-05-02T18:06:05Z</time></trkpt>
<trkpt lat="50.386072" lon="3.868647"><time>2026-05-02T18:16:05Z</time></trkpt>
<trkpt lat="50.384882" lon="3.864140"><time>2026-05-02T18:26:05Z</time></trkpt>
</trkseg>
</trk>
<trk>
<name>hfmeg30</name>
<cmt>v</cmt>
<desc>Eugies Sentier n°30 Allée du Garde</desc>
<link href="https://chemins.be/eugies/sentier/30"/><trkseg>
<trkpt lat="50.372119" lon="3.852609"><time>2026-05-02T17:26:05Z</time></trkpt>
<trkpt lat="50.377352" lon="3.842464"><time>2026-05-02T17:36:05Z</time></trkpt>
</trkseg>
</trk>
<trk>
<name>hfmeg31</name>
<cmt>q</cmt>
<desc>Eugies Sentier n°31 </desc>
<link href="https://chemins.be/eugies/sentier/31"/><trkseg>
<trkpt lat="50.389677" lon="3.871983"><time>2026-05-02T17:26:05Z</time></trkpt>
<trkpt lat="50.388076" lon="3.871082"><time>2026-05-02T17:36:05Z</time></trkpt>
<trkpt lat="50.387303" lon="3.869956"><time>2026-05-02T17:46:05Z</time></trkpt>
<trkpt lat="50.386277" lon="3.868775"><time>2026-05-02T17:56:05Z</time></trkpt>
</trkseg>
</trk>
<trk>
<name>hfmeg32</name>
<cmt>v</cmt>
<desc>Eugies Sentier n°32 Rue du Centre</desc>
<link href="https://chemins.be/eugies/sentier/32"/><trkseg>
<trkpt lat="50.389666" lon="3.870376"><time>2026-05-02T17:26:05Z</time></trkpt>
<trkpt lat="50.389687" lon="3.871192"><time>2026-05-02T17:36:05Z</time></trkpt>
<trkpt lat="50.389698" lon="3.871656"><time>2026-05-02T17:46:05Z</time></trkpt>
<trkpt lat="50.389700" lon="3.872063"><time>2026-05-02T17:56:05Z</time></trkpt>
<trkpt lat="50.389684" lon="3.872429"><time>2026-05-02T18:06:05Z</time></trkpt>
<trkpt lat="50.389627" lon="3.873850"><time>2026-05-02T18:16:05Z</time></trkpt>
<trkpt lat="50.389728" lon="3.874327"><time>2026-05-02T18:26:05Z</time></trkpt>
<trkpt lat="50.389792" lon="3.874566"><time>2026-05-02T18:36:05Z</time></trkpt>
<trkpt lat="50.389865" lon="3.874846"><time>2026-05-02T18:46:05Z</time></trkpt>
<trkpt lat="50.389920" lon="3.875141"><time>2026-05-02T18:56:05Z</time></trkpt>
<trkpt lat="50.389993" lon="3.875534"><time>2026-05-02T19:06:05Z</time></trkpt>
<trkpt lat="50.389985" lon="3.875647"><time>2026-05-02T19:16:05Z</time></trkpt>
<trkpt lat="50.389986" lon="3.875801"><time>2026-05-02T19:26:05Z</time></trkpt>
<trkpt lat="50.390256" lon="3.875995"><time>2026-05-02T19:36:05Z</time></trkpt>
</trkseg></trk>
<trk>
<name>hfmeg32</name>
<cmt>r</cmt>
<desc>Eugies Sentier n°32 Rue du Centre</desc>
<link href="https://chemins.be/eugies/sentier/32"/><trkseg>
<trkpt lat="50.390256" lon="3.875995"><time>2026-05-02T19:36:05Z</time></trkpt>
<trkpt lat="50.389896" lon="3.878094"><time>2026-05-02T19:46:05Z</time></trkpt>
<trkpt lat="50.389986" lon="3.878136"><time>2026-05-02T19:56:05Z</time></trkpt>
</trkseg></trk>
<trk>
<name>hfmeg32</name>
<cmt>v</cmt>
<desc>Eugies Sentier n°32 Rue du Centre</desc>
<link href="https://chemins.be/eugies/sentier/32"/><trkseg>
<trkpt lat="50.389986" lon="3.878136"><time>2026-05-02T19:56:05Z</time></trkpt>
<trkpt lat="50.390930" lon="3.880264"><time>2026-05-02T20:06:05Z</time></trkpt>
</trkseg>
</trk>
<trk>
<name>hfmeg33</name>
<cmt>q</cmt>
<desc>Eugies Sentier n°33 </desc>
<link href="https://chemins.be/eugies/sentier/33"/><trkseg>
<trkpt lat="50.391195" lon="3.868883"><time>2026-05-02T17:26:05Z</time></trkpt>
<trkpt lat="50.389690" lon="3.871962"><time>2026-05-02T17:36:05Z</time></trkpt>
</trkseg>
</trk>
<trk>
<name>hfmeg34</name>
<cmt>q</cmt>
<desc>Eugies Sentier n°34 </desc>
<link href="https://chemins.be/eugies/sentier/34"/><trkseg>
<trkpt lat="50.388733" lon="3.885813"><time>2026-05-02T17:26:05Z</time></trkpt>
<trkpt lat="50.389923" lon="3.883764"><time>2026-05-02T17:36:05Z</time></trkpt>
<trkpt lat="50.390019" lon="3.883967"><time>2026-05-02T17:46:05Z</time></trkpt>
</trkseg></trk>
<trk>
<name>hfmeg34</name>
<cmt>v</cmt>
<desc>Eugies Sentier n°34 </desc>
<link href="https://chemins.be/eugies/sentier/34"/><trkseg>
<trkpt lat="50.390019" lon="3.883967"><time>2026-05-02T17:46:05Z</time></trkpt>
<trkpt lat="50.390686" lon="3.881897"><time>2026-05-02T17:56:05Z</time></trkpt>
<trkpt lat="50.390737" lon="3.881194"><time>2026-05-02T18:06:05Z</time></trkpt>
<trkpt lat="50.390956" lon="3.880330"><time>2026-05-02T18:16:05Z</time></trkpt>
<trkpt lat="50.391373" lon="3.878515"><time>2026-05-02T18:26:05Z</time></trkpt>
</trkseg></trk>
<trk>
<name>hfmeg34</name>
<cmt>d</cmt>
<desc>Eugies Sentier n°34 </desc>
<link href="https://chemins.be/eugies/sentier/34"/><trkseg>
<trkpt lat="50.391373" lon="3.878515"><time>2026-05-02T18:26:05Z</time></trkpt>
<trkpt lat="50.392114" lon="3.875245"><time>2026-05-02T18:36:05Z</time></trkpt>
</trkseg></trk>
<trk>
<name>hfmeg34</name>
<cmt>q</cmt>
<desc>Eugies Sentier n°34 </desc>
<link href="https://chemins.be/eugies/sentier/34"/><trkseg>
<trkpt lat="50.392114" lon="3.875245"><time>2026-05-02T18:36:05Z</time></trkpt>
<trkpt lat="50.392611" lon="3.872091"><time>2026-05-02T18:46:05Z</time></trkpt>
<trkpt lat="50.392850" lon="3.870106"><time>2026-05-02T18:56:05Z</time></trkpt>
</trkseg>
</trk>
<trk>
<name>hfmeg35</name>
<cmt>r</cmt>
<desc>Eugies Sentier n°35 Sentier Saint-Remy</desc>
<link href="https://chemins.be/eugies/sentier/35"/><trkseg>
<trkpt lat="50.394408" lon="3.871307"><time>2026-05-02T17:26:05Z</time></trkpt>
<trkpt lat="50.393691" lon="3.872809"><time>2026-05-02T17:36:05Z</time></trkpt>
<trkpt lat="50.392706" lon="3.875504"><time>2026-05-02T17:46:05Z</time></trkpt>
</trkseg></trk>
<trk>
<name>hfmeg35</name>
<cmt>v</cmt>
<desc>Eugies Sentier n°35 Sentier Saint-Remy</desc>
<link href="https://chemins.be/eugies/sentier/35"/><trkseg>
<trkpt lat="50.392706" lon="3.875504"><time>2026-05-02T17:46:05Z</time></trkpt>
<trkpt lat="50.392539" lon="3.875901"><time>2026-05-02T17:56:05Z</time></trkpt>
<trkpt lat="50.392369" lon="3.878097"><time>2026-05-02T18:06:05Z</time></trkpt>
<trkpt lat="50.392214" lon="3.879674"><time>2026-05-02T18:16:05Z</time></trkpt>
<trkpt lat="50.391918" lon="3.881983"><time>2026-05-02T18:26:05Z</time></trkpt>
<trkpt lat="50.391562" lon="3.882915"><time>2026-05-02T18:36:05Z</time></trkpt>
<trkpt lat="50.391179" lon="3.883777"><time>2026-05-02T18:46:05Z</time></trkpt>
<trkpt lat="50.391161" lon="3.883861"><time>2026-05-02T18:56:05Z</time></trkpt>
<trkpt lat="50.391153" lon="3.883974"><time>2026-05-02T19:06:05Z</time></trkpt>
<trkpt lat="50.391154" lon="3.884283"><time>2026-05-02T19:16:05Z</time></trkpt>
<trkpt lat="50.391146" lon="3.884565"><time>2026-05-02T19:26:05Z</time></trkpt>
<trkpt lat="50.391156" lon="3.884663"><time>2026-05-02T19:36:05Z</time></trkpt>
<trkpt lat="50.391129" lon="3.884846"><time>2026-05-02T19:46:05Z</time></trkpt>
<trkpt lat="50.391112" lon="3.885001"><time>2026-05-02T19:56:05Z</time></trkpt>
<trkpt lat="50.391113" lon="3.885099"><time>2026-05-02T20:06:05Z</time></trkpt>
<trkpt lat="50.391122" lon="3.885156"><time>2026-05-02T20:16:05Z</time></trkpt>
<trkpt lat="50.391122" lon="3.885240"><time>2026-05-02T20:26:05Z</time></trkpt>
<trkpt lat="50.391113" lon="3.885310"><time>2026-05-02T20:36:05Z</time></trkpt>
<trkpt lat="50.391078" lon="3.885451"><time>2026-05-02T20:46:05Z</time></trkpt>
<trkpt lat="50.390989" lon="3.885677"><time>2026-05-02T20:56:05Z</time></trkpt>
<trkpt lat="50.390891" lon="3.885931"><time>2026-05-02T21:06:05Z</time></trkpt>
<trkpt lat="50.390731" lon="3.886313"><time>2026-05-02T21:16:05Z</time></trkpt>
<trkpt lat="50.390517" lon="3.886779"><time>2026-05-02T21:26:05Z</time></trkpt>
<trkpt lat="50.390481" lon="3.886836"><time>2026-05-02T21:36:05Z</time></trkpt>
<trkpt lat="50.390410" lon="3.886907"><time>2026-05-02T21:46:05Z</time></trkpt>
<trkpt lat="50.390329" lon="3.886978"><time>2026-05-02T21:56:05Z</time></trkpt>
</trkseg>
</trk>
<trk>
<name>hfmeg36</name>
<cmt>r</cmt>
<desc>Eugies Sentier n°36 Rue Raoul Follereau</desc>
<link href="https://chemins.be/eugies/sentier/36"/><trkseg>
<trkpt lat="50.392118" lon="3.875293"><time>2026-05-02T17:26:05Z</time></trkpt>
<trkpt lat="50.392453" lon="3.875561"><time>2026-05-02T17:36:05Z</time></trkpt>
</trkseg></trk>
<trk>
<name>hfmeg36</name>
<cmt>v</cmt>
<desc>Eugies Sentier n°36 Rue Raoul Follereau</desc>
<link href="https://chemins.be/eugies/sentier/36"/><trkseg>
<trkpt lat="50.392453" lon="3.875561"><time>2026-05-02T17:36:05Z</time></trkpt>
<trkpt lat="50.392495" lon="3.875390"><time>2026-05-02T17:46:05Z</time></trkpt>
<trkpt lat="50.392693" lon="3.875518"><time>2026-05-02T17:56:05Z</time></trkpt>
</trkseg>
</trk>
<trk>
<name>hfmeg37</name>
<cmt>d</cmt>
<desc>Eugies Sentier n°37 </desc>
<link href="https://chemins.be/eugies/sentier/37"/><trkseg>
<trkpt lat="50.386694" lon="3.877133"><time>2026-05-02T17:26:05Z</time></trkpt>
<trkpt lat="50.387595" lon="3.877459"><time>2026-05-02T17:36:05Z</time></trkpt>
</trkseg></trk>
<trk>
<name>hfmeg37</name>
<cmt>s</cmt>
<desc>Eugies Sentier n°37 </desc>
<link href="https://chemins.be/eugies/sentier/37"/><trkseg>
<trkpt lat="50.387595" lon="3.877459"><time>2026-05-02T17:36:05Z</time></trkpt>
<trkpt lat="50.387905" lon="3.877659"><time>2026-05-02T17:46:05Z</time></trkpt>
<trkpt lat="50.389034" lon="3.878968"><time>2026-05-02T17:56:05Z</time></trkpt>
<trkpt lat="50.389252" lon="3.879526"><time>2026-05-02T18:06:05Z</time></trkpt>
</trkseg>
</trk>
<trk>
<name>hfmeg38</name>
<cmt>q</cmt>
<desc>Eugies Sentier n°38 Rue Jean Baptiste Descamps</desc>
<link href="https://chemins.be/eugies/sentier/38"/><trkseg>
<trkpt lat="50.394381" lon="3.882731"><time>2026-05-02T17:26:05Z</time></trkpt>
<trkpt lat="50.393527" lon="3.882963"><time>2026-05-02T17:36:05Z</time></trkpt>
</trkseg></trk>
<trk>
<name>hfmeg38</name>
<cmt>d</cmt>
<desc>Eugies Sentier n°38 Rue Jean Baptiste Descamps</desc>
<link href="https://chemins.be/eugies/sentier/38"/><trkseg>
<trkpt lat="50.393527" lon="3.882963"><time>2026-05-02T17:36:05Z</time></trkpt>
<trkpt lat="50.391886" lon="3.881998"><time>2026-05-02T17:46:05Z</time></trkpt>
</trkseg></trk>
<trk>
<name>hfmeg38</name>
<cmt>q</cmt>
<desc>Eugies Sentier n°38 Rue Jean Baptiste Descamps</desc>
<link href="https://chemins.be/eugies/sentier/38"/><trkseg>
<trkpt lat="50.391886" lon="3.881998"><time>2026-05-02T17:46:05Z</time></trkpt>
<trkpt lat="50.390999" lon="3.881435"><time>2026-05-02T17:56:05Z</time></trkpt>
</trkseg></trk>
<trk>
<name>hfmeg38</name>
<cmt>r</cmt>
<desc>Eugies Sentier n°38 Rue Jean Baptiste Descamps</desc>
<link href="https://chemins.be/eugies/sentier/38"/><trkseg>
<trkpt lat="50.390999" lon="3.881435"><time>2026-05-02T17:56:05Z</time></trkpt>
<trkpt lat="50.389259" lon="3.879530"><time>2026-05-02T18:06:05Z</time></trkpt>
</trkseg></trk>
<trk>
<name>hfmeg38</name>
<cmt>s</cmt>
<desc>Eugies Sentier n°38 Rue Jean Baptiste Descamps</desc>
<link href="https://chemins.be/eugies/sentier/38"/><trkseg>
<trkpt lat="50.389259" lon="3.879530"><time>2026-05-02T18:06:05Z</time></trkpt>
<trkpt lat="50.388507" lon="3.879107"><time>2026-05-02T18:16:05Z</time></trkpt>
<trkpt lat="50.387802" lon="3.879096"><time>2026-05-02T18:26:05Z</time></trkpt>
</trkseg>
</trk>
<trk>
<name>hfmeg39</name>
<cmt>q</cmt>
<desc>Eugies Sentier n°39 </desc>
<link href="https://chemins.be/eugies/sentier/39"/><trkseg>
<trkpt lat="50.388828" lon="3.881232"><time>2026-05-02T17:26:05Z</time></trkpt>
<trkpt lat="50.388555" lon="3.881553"><time>2026-05-02T17:36:05Z</time></trkpt>
<trkpt lat="50.388863" lon="3.882991"><time>2026-05-02T17:46:05Z</time></trkpt>
<trkpt lat="50.389417" lon="3.884708"><time>2026-05-02T17:56:05Z</time></trkpt>
</trkseg>
</trk>
<trk>
<name>hfmeg40</name>
<cmt>v</cmt>
<desc>Eugies Sentier n°40 Rue du Moulin</desc>
<link href="https://chemins.be/eugies/sentier/40"/><trkseg>
<trkpt lat="50.390217" lon="3.886373"><time>2026-05-02T17:26:05Z</time></trkpt>
<trkpt lat="50.389779" lon="3.885955"><time>2026-05-02T17:36:05Z</time></trkpt>
</trkseg></trk>
<trk>
<name>hfmeg40</name>
<cmt>b</cmt>
<desc>Eugies Sentier n°40 Rue du Moulin</desc>
<link href="https://chemins.be/eugies/sentier/40"/><trkseg>
<trkpt lat="50.389779" lon="3.885955"><time>2026-05-02T17:36:05Z</time></trkpt>
<trkpt lat="50.389228" lon="3.885043"><time>2026-05-02T17:46:05Z</time></trkpt>
</trkseg></trk>
<trk>
<name>hfmeg40</name>
<cmt>q</cmt>
<desc>Eugies Sentier n°40 Rue du Moulin</desc>
<link href="https://chemins.be/eugies/sentier/40"/><trkseg>
<trkpt lat="50.389228" lon="3.885043"><time>2026-05-02T17:46:05Z</time></trkpt>
<trkpt lat="50.388671" lon="3.884834"><time>2026-05-02T17:56:05Z</time></trkpt>
<trkpt lat="50.388305" lon="3.884367"><time>2026-05-02T18:06:05Z</time></trkpt>
<trkpt lat="50.387221" lon="3.882498"><time>2026-05-02T18:16:05Z</time></trkpt>
<trkpt lat="50.385785" lon="3.878506"><time>2026-05-02T18:26:05Z</time></trkpt>
</trkseg></trk>
<trk>
<name>hfmeg40</name>
<cmt>r</cmt>
<desc>Eugies Sentier n°40 Rue du Moulin</desc>
<link href="https://chemins.be/eugies/sentier/40"/><trkseg>
<trkpt lat="50.385785" lon="3.878506"><time>2026-05-02T18:26:05Z</time></trkpt>
<trkpt lat="50.385470" lon="3.878206"><time>2026-05-02T18:36:05Z</time></trkpt>
</trkseg></trk>
<trk>
<name>hfmeg40</name>
<cmt>q</cmt>
<desc>Eugies Sentier n°40 Rue du Moulin</desc>
<link href="https://chemins.be/eugies/sentier/40"/><trkseg>
<trkpt lat="50.385470" lon="3.878206"><time>2026-05-02T18:36:05Z</time></trkpt>
<trkpt lat="50.384882" lon="3.876725"><time>2026-05-02T18:46:05Z</time></trkpt>
<trkpt lat="50.384553" lon="3.874451"><time>2026-05-02T18:56:05Z</time></trkpt>
</trkseg>
</trk>
<trk>
<name>hfmeg41</name>
<cmt>q</cmt>
<desc>Eugies Sentier n°41 </desc>
<link href="https://chemins.be/eugies/sentier/41"/><trkseg>
<trkpt lat="50.386886" lon="3.883195"><time>2026-05-02T17:26:05Z</time></trkpt>
<trkpt lat="50.384484" lon="3.887229"><time>2026-05-02T17:36:05Z</time></trkpt>
</trkseg>
</trk>
<trk>
<name>hfmeg42</name>
<cmt>q</cmt>
<desc>Eugies Sentier n°42 </desc>
<link href="https://chemins.be/eugies/sentier/42"/><trkseg>
<trkpt lat="50.386585" lon="3.887218"><time>2026-05-02T17:26:05Z</time></trkpt>
<trkpt lat="50.385565" lon="3.885502"><time>2026-05-02T17:36:05Z</time></trkpt>
</trkseg>
</trk>
<trk>
<name>hfmeg43</name>
<cmt>v</cmt>
<desc>Eugies Sentier n°43 </desc>
<link href="https://chemins.be/eugies/sentier/43"/><trkseg>
<trkpt lat="50.388712" lon="3.888978"><time>2026-05-02T17:26:05Z</time></trkpt>
<trkpt lat="50.387590" lon="3.890727"><time>2026-05-02T17:36:05Z</time></trkpt>
<trkpt lat="50.386872" lon="3.891499"><time>2026-05-02T17:46:05Z</time></trkpt>
</trkseg></trk>
<trk>
<name>hfmeg43</name>
<cmt>q</cmt>
<desc>Eugies Sentier n°43 </desc>
<link href="https://chemins.be/eugies/sentier/43"/><trkseg>
<trkpt lat="50.386872" lon="3.891499"><time>2026-05-02T17:46:05Z</time></trkpt>
<trkpt lat="50.383930" lon="3.895082"><time>2026-05-02T17:56:05Z</time></trkpt>
<trkpt lat="50.381700" lon="3.896327"><time>2026-05-02T18:06:05Z</time></trkpt>
</trkseg>
</trk>
<trk>
<name>hfmeg44</name>
<cmt>q</cmt>
<desc>Eugies Sentier n°44 </desc>
<link href="https://chemins.be/eugies/sentier/44"/><trkseg>
<trkpt lat="50.389635" lon="3.889824"><time>2026-05-02T17:26:05Z</time></trkpt>
<trkpt lat="50.392207" lon="3.892556"><time>2026-05-02T17:36:05Z</time></trkpt>
<trkpt lat="50.393165" lon="3.892670"><time>2026-05-02T17:46:05Z</time></trkpt>
</trkseg>
</trk>
<trk>
<name>hfmeg45</name>
<cmt>v</cmt>
<desc>Eugies Sentier n°45 </desc>
<link href="https://chemins.be/eugies/sentier/45"/><trkseg>
<trkpt lat="50.387959" lon="3.868668"><time>2026-05-02T17:26:05Z</time></trkpt>
<trkpt lat="50.387737" lon="3.869285"><time>2026-05-02T17:36:05Z</time></trkpt>
<trkpt lat="50.387310" lon="3.869939"><time>2026-05-02T17:46:05Z</time></trkpt>
</trkseg>
</trk>
<trk>
<name>hfmeg46</name>
<cmt>q</cmt>
<desc>Eugies Sentier n°46 </desc>
<link href="https://chemins.be/eugies/sentier/46"/><trkseg>
<trkpt lat="50.389287" lon="3.893870"><time>2026-05-02T17:26:05Z</time></trkpt>
<trkpt lat="50.388671" lon="3.897357"><time>2026-05-02T17:36:05Z</time></trkpt>
</trkseg>
</trk>
<trk>
<name>hfmeg47</name>
<cmt>q</cmt>
<desc>Eugies Sentier n°47 Rue de Dour / Allée d'Eugies</desc>
<link href="https://chemins.be/eugies/sentier/47"/><trkseg>
<trkpt lat="50.374395" lon="3.841146"><time>2026-05-02T17:26:05Z</time></trkpt>
<trkpt lat="50.377210" lon="3.843138"><time>2026-05-02T17:36:05Z</time></trkpt>
</trkseg></trk>
<trk>
<name>hfmeg47</name>
<cmt>r</cmt>
<desc>Eugies Sentier n°47 Rue de Dour / Allée d'Eugies</desc>
<link href="https://chemins.be/eugies/sentier/47"/><trkseg>
<trkpt lat="50.377210" lon="3.843138"><time>2026-05-02T17:36:05Z</time></trkpt>
<trkpt lat="50.376907" lon="3.848674"><time>2026-05-02T17:46:05Z</time></trkpt>
</trkseg></trk>
<trk>
<name>hfmeg47</name>
<cmt>d</cmt>
<desc>Eugies Sentier n°47 Rue de Dour / Allée d'Eugies</desc>
<link href="https://chemins.be/eugies/sentier/47"/><trkseg>
<trkpt lat="50.376907" lon="3.848674"><time>2026-05-02T17:46:05Z</time></trkpt>
<trkpt lat="50.377285" lon="3.849009"><time>2026-05-02T17:56:05Z</time></trkpt>
</trkseg></trk>
<trk>
<name>hfmeg47</name>
<cmt>v</cmt>
<desc>Eugies Sentier n°47 Rue de Dour / Allée d'Eugies</desc>
<link href="https://chemins.be/eugies/sentier/47"/><trkseg>
<trkpt lat="50.377285" lon="3.849009"><time>2026-05-02T17:56:05Z</time></trkpt>
<trkpt lat="50.378753" lon="3.852213"><time>2026-05-02T18:06:05Z</time></trkpt>
<trkpt lat="50.380163" lon="3.855950"><time>2026-05-02T18:16:05Z</time></trkpt>
<trkpt lat="50.382914" lon="3.861156"><time>2026-05-02T18:26:05Z</time></trkpt>
<trkpt lat="50.386416" lon="3.861258"><time>2026-05-02T18:36:05Z</time></trkpt>
</trkseg>
</trk>
<trk>
<name>hfmeg48</name>
<cmt>q</cmt>
<desc>Eugies Sentier n°48 </desc>
<link href="https://chemins.be/eugies/sentier/48"/><trkseg>
<trkpt lat="50.375981" lon="3.838906"><time>2026-05-02T17:26:05Z</time></trkpt>
<trkpt lat="50.374832" lon="3.841464"><time>2026-05-02T17:36:05Z</time></trkpt>
</trkseg>
</trk>
<trk>
<name>hfmeg49</name>
<cmt>d</cmt>
<desc>Eugies Sentier n°49 </desc>
<link href="https://chemins.be/eugies/sentier/49"/><trkseg>
<trkpt lat="50.395112" lon="3.861515"><time>2026-05-02T17:26:05Z</time></trkpt>
<trkpt lat="50.392663" lon="3.854364"><time>2026-05-02T17:36:05Z</time></trkpt>
<trkpt lat="50.391371" lon="3.850279"><time>2026-05-02T17:46:05Z</time></trkpt>
<trkpt lat="50.388171" lon="3.842844"><time>2026-05-02T17:56:05Z</time></trkpt>
<trkpt lat="50.386890" lon="3.838501"><time>2026-05-02T18:06:05Z</time></trkpt>
<trkpt lat="50.386719" lon="3.837799"><time>2026-05-02T18:16:05Z</time></trkpt>
</trkseg>
</trk>
<trk>
<name>hfmeg51</name>
<cmt>v</cmt>
<desc>Eugies Sentier n°51 </desc>
<link href="https://chemins.be/eugies/sentier/51"/><trkseg>
<trkpt lat="50.401845" lon="3.837893"><time>2026-05-02T17:26:05Z</time></trkpt>
<trkpt lat="50.401795" lon="3.837610"><time>2026-05-02T17:36:05Z</time></trkpt>
<trkpt lat="50.401139" lon="3.836975"><time>2026-05-02T17:46:05Z</time></trkpt>
<trkpt lat="50.399760" lon="3.833851"><time>2026-05-02T17:56:05Z</time></trkpt>
</trkseg></trk>
<trk>
<name>hfmeg51</name>
<cmt>d</cmt>
<desc>Eugies Sentier n°51 </desc>
<link href="https://chemins.be/eugies/sentier/51"/><trkseg>
<trkpt lat="50.399760" lon="3.833851"><time>2026-05-02T17:56:05Z</time></trkpt>
<trkpt lat="50.398469" lon="3.831619"><time>2026-05-02T18:06:05Z</time></trkpt>
</trkseg>
</trk>
<trk>
<name>hfmeg52</name>
<cmt>q</cmt>
<desc>Eugies Sentier n°52 </desc>
<link href="https://chemins.be/eugies/sentier/52"/><trkseg>
<trkpt lat="50.386501" lon="3.861364"><time>2026-05-02T17:26:05Z</time></trkpt>
<trkpt lat="50.382098" lon="3.849618"><time>2026-05-02T17:36:05Z</time></trkpt>
<trkpt lat="50.380949" lon="3.846061"><time>2026-05-02T17:46:05Z</time></trkpt>
<trkpt lat="50.380465" lon="3.843844"><time>2026-05-02T17:56:05Z</time></trkpt>
</trkseg>
</trk>
<trk>
<name>hfmeg53</name>
<cmt>q</cmt>
<desc>Eugies Sentier n°53 </desc>
<link href="https://chemins.be/eugies/sentier/53"/><trkseg>
<trkpt lat="50.381981" lon="3.839305"><time>2026-05-02T17:26:05Z</time></trkpt>
<trkpt lat="50.382021" lon="3.840268"><time>2026-05-02T17:36:05Z</time></trkpt>
<trkpt lat="50.381018" lon="3.844313"><time>2026-05-02T17:46:05Z</time></trkpt>
<trkpt lat="50.380650" lon="3.844671"><time>2026-05-02T17:56:05Z</time></trkpt>
</trkseg>
</trk>
<trk>
<name>hfmeg6</name>
<cmt>v</cmt>
<desc>Eugies Chemin n°6 </desc>
<link href="https://chemins.be/eugies/chemin/6"/><trkseg>
<trkpt lat="50.388069" lon="3.894975"><time>2026-05-02T17:26:05Z</time></trkpt>
<trkpt lat="50.386742" lon="3.891306"><time>2026-05-02T17:36:05Z</time></trkpt>
<trkpt lat="50.385607" lon="3.888774"><time>2026-05-02T17:46:05Z</time></trkpt>
<trkpt lat="50.384471" lon="3.887186"><time>2026-05-02T17:56:05Z</time></trkpt>
</trkseg>
</trk>
<trk>
<name>hfmeg8</name>
<cmt>v</cmt>
<desc>Eugies Chemin n°8 </desc>
<link href="https://chemins.be/eugies/chemin/8"/><trkseg>
<trkpt lat="50.392748" lon="3.867855"><time>2026-05-02T17:26:05Z</time></trkpt>
<trkpt lat="50.392812" lon="3.868065"><time>2026-05-02T17:36:05Z</time></trkpt>
<trkpt lat="50.392904" lon="3.868641"><time>2026-05-02T17:46:05Z</time></trkpt>
<trkpt lat="50.392941" lon="3.868795"><time>2026-05-02T17:56:05Z</time></trkpt>
<trkpt lat="50.393086" lon="3.869047"><time>2026-05-02T18:06:05Z</time></trkpt>
<trkpt lat="50.393275" lon="3.869298"><time>2026-05-02T18:16:05Z</time></trkpt>
</trkseg>
</trk>
<trk>
<name>hfmeg9</name>
<cmt>s</cmt>
<desc>Eugies Chemin n°9 </desc>
<link href="https://chemins.be/eugies/chemin/9"/><trkseg>
<trkpt lat="50.396237" lon="3.873091"><time>2026-05-02T17:26:05Z</time></trkpt>
<trkpt lat="50.396282" lon="3.872544"><time>2026-05-02T17:36:05Z</time></trkpt>
</trkseg>
</trk>
<trk>
<name>hfmegi1</name>
<cmt>v</cmt>
<desc>Eugies Chemin n°i1 Allée Degorge</desc>
<link href="https://chemins.be/eugies/chemin/i1"/><trkseg>
<trkpt lat="50.393857" lon="3.836311"><time>2026-05-02T17:26:05Z</time></trkpt>
<trkpt lat="50.389817" lon="3.839394"><time>2026-05-02T17:36:05Z</time></trkpt>
<trkpt lat="50.389360" lon="3.839708"><time>2026-05-02T17:46:05Z</time></trkpt>
<trkpt lat="50.387487" lon="3.841149"><time>2026-05-02T17:56:05Z</time></trkpt>
<trkpt lat="50.386976" lon="3.841493"><time>2026-05-02T18:06:05Z</time></trkpt>
<trkpt lat="50.386421" lon="3.841977"><time>2026-05-02T18:16:05Z</time></trkpt>
<trkpt lat="50.386134" lon="3.842163"><time>2026-05-02T18:26:05Z</time></trkpt>
<trkpt lat="50.385363" lon="3.842706"><time>2026-05-02T18:36:05Z</time></trkpt>
<trkpt lat="50.381932" lon="3.845373"><time>2026-05-02T18:46:05Z</time></trkpt>
<trkpt lat="50.381260" lon="3.845816"><time>2026-05-02T18:56:05Z</time></trkpt>
<trkpt lat="50.380408" lon="3.846430"><time>2026-05-02T19:06:05Z</time></trkpt>
<trkpt lat="50.379602" lon="3.847072"><time>2026-05-02T19:16:05Z</time></trkpt>
<trkpt lat="50.377126" lon="3.848921"><time>2026-05-02T19:26:05Z</time></trkpt>
<trkpt lat="50.374238" lon="3.851133"><time>2026-05-02T19:36:05Z</time></trkpt>
<trkpt lat="50.372108" lon="3.852764"><time>2026-05-02T19:46:05Z</time></trkpt>
</trkseg>
</trk>
<trk>
<name>hfmegi10</name>
<cmt>v</cmt>
<desc>Eugies Chemin n°i10 </desc>
<link href="https://chemins.be/eugies/chemin/i10"/><trkseg>
<trkpt lat="50.396126" lon="3.851132"><time>2026-05-02T17:26:05Z</time></trkpt>
<trkpt lat="50.395564" lon="3.851309"><time>2026-05-02T17:36:05Z</time></trkpt>
</trkseg>
</trk>
<trk>
<name>hfmegi11</name>
<cmt>v</cmt>
<desc>Eugies Chemin n°i11 </desc>
<link href="https://chemins.be/eugies/chemin/i11"/><trkseg>
<trkpt lat="50.399166" lon="3.835002"><time>2026-05-02T17:26:05Z</time></trkpt>
<trkpt lat="50.398881" lon="3.834537"><time>2026-05-02T17:36:05Z</time></trkpt>
<trkpt lat="50.397757" lon="3.833835"><time>2026-05-02T17:46:05Z</time></trkpt>
<trkpt lat="50.396871" lon="3.833982"><time>2026-05-02T17:56:05Z</time></trkpt>
<trkpt lat="50.395422" lon="3.832834"><time>2026-05-02T18:06:05Z</time></trkpt>
<trkpt lat="50.394474" lon="3.830001"><time>2026-05-02T18:16:05Z</time></trkpt>
</trkseg>
</trk>
<trk>
<name>hfmegi12</name>
<cmt>v</cmt>
<desc>Eugies Sentier n°i12 </desc>
<link href="https://chemins.be/eugies/sentier/i12"/><trkseg>
<trkpt lat="50.377443" lon="3.842370"><time>2026-05-02T17:26:05Z</time></trkpt>
<trkpt lat="50.377832" lon="3.843511"><time>2026-05-02T17:36:05Z</time></trkpt>
<trkpt lat="50.380043" lon="3.846678"><time>2026-05-02T17:46:05Z</time></trkpt>
</trkseg>
</trk>
<trk>
<name>hfmegi2</name>
<cmt>v</cmt>
<desc>Eugies Chemin n°i2 Allée Centrale</desc>
<link href="https://chemins.be/eugies/chemin/i2"/><trkseg>
<trkpt lat="50.377317" lon="3.848854"><time>2026-05-02T17:26:05Z</time></trkpt>
<trkpt lat="50.377443" lon="3.848853"><time>2026-05-02T17:36:05Z</time></trkpt>
<trkpt lat="50.380179" lon="3.849343"><time>2026-05-02T17:46:05Z</time></trkpt>
<trkpt lat="50.384758" lon="3.849968"><time>2026-05-02T17:56:05Z</time></trkpt>
<trkpt lat="50.390284" lon="3.850772"><time>2026-05-02T18:06:05Z</time></trkpt>
<trkpt lat="50.396426" lon="3.847146"><time>2026-05-02T18:16:05Z</time></trkpt>
</trkseg>
</trk>
<trk>
<name>hfmegi3</name>
<cmt>v</cmt>
<desc>Eugies Sentier n°i3 </desc>
<link href="https://chemins.be/eugies/sentier/i3"/><trkseg>
<trkpt lat="50.399850" lon="3.833975"><time>2026-05-02T17:26:05Z</time></trkpt>
<trkpt lat="50.399763" lon="3.832096"><time>2026-05-02T17:36:05Z</time></trkpt>
</trkseg>
</trk>
<trk>
<name>hfmegi4</name>
<cmt>v</cmt>
<desc>Eugies Chemin n°i4 Allée du Bois de Saint-Ghislain</desc>
<link href="https://chemins.be/eugies/chemin/i4"/><trkseg>
<trkpt lat="50.396290" lon="3.841347"><time>2026-05-02T17:26:05Z</time></trkpt>
<trkpt lat="50.393875" lon="3.836325"><time>2026-05-02T17:36:05Z</time></trkpt>
<trkpt lat="50.392069" lon="3.832689"><time>2026-05-02T17:46:05Z</time></trkpt>
</trkseg>
</trk>
<trk>
<name>hfmegi5</name>
<cmt>v</cmt>
<desc>Eugies Sentier n°i5 </desc>
<link href="https://chemins.be/eugies/sentier/i5"/><trkseg>
<trkpt lat="50.385527" lon="3.838102"><time>2026-05-02T17:26:05Z</time></trkpt>
<trkpt lat="50.385247" lon="3.842769"><time>2026-05-02T17:36:05Z</time></trkpt>
</trkseg>
</trk>
<trk>
<name>hfmegi6</name>
<cmt>v</cmt>
<desc>Eugies Chemin n°i6 </desc>
<link href="https://chemins.be/eugies/chemin/i6"/><trkseg>
<trkpt lat="50.395107" lon="3.861539"><time>2026-05-02T17:26:05Z</time></trkpt>
<trkpt lat="50.394844" lon="3.861371"><time>2026-05-02T17:36:05Z</time></trkpt>
<trkpt lat="50.394587" lon="3.861389"><time>2026-05-02T17:46:05Z</time></trkpt>
<trkpt lat="50.393209" lon="3.862156"><time>2026-05-02T17:56:05Z</time></trkpt>
</trkseg>
</trk>
<trk>
<name>hfmegi7</name>
<cmt>v</cmt>
<desc>Eugies Chemin n°i7 Allée de la Belle Maison / Allée de Colfontaine</desc>
<link href="https://chemins.be/eugies/chemin/i7"/><trkseg>
<trkpt lat="50.395115" lon="3.861530"><time>2026-05-02T17:26:05Z</time></trkpt>
<trkpt lat="50.394866" lon="3.861136"><time>2026-05-02T17:36:05Z</time></trkpt>
<trkpt lat="50.390299" lon="3.850845"><time>2026-05-02T17:46:05Z</time></trkpt>
<trkpt lat="50.389117" lon="3.847944"><time>2026-05-02T17:56:05Z</time></trkpt>
<trkpt lat="50.388953" lon="3.845970"><time>2026-05-02T18:06:05Z</time></trkpt>
<trkpt lat="50.389390" lon="3.839378"><time>2026-05-02T18:16:05Z</time></trkpt>
</trkseg>
</trk>
<trk>
<name>hfmegi8</name>
<cmt>v</cmt>
<desc>Eugies Chemin n°i8 </desc>
<link href="https://chemins.be/eugies/chemin/i8"/><trkseg>
<trkpt lat="50.394853" lon="3.861394"><time>2026-05-02T17:26:05Z</time></trkpt>
<trkpt lat="50.395530" lon="3.851277"><time>2026-05-02T17:36:05Z</time></trkpt>
<trkpt lat="50.395763" lon="3.848026"><time>2026-05-02T17:46:05Z</time></trkpt>
<trkpt lat="50.395647" lon="3.847564"><time>2026-05-02T17:56:05Z</time></trkpt>
</trkseg>
</trk>
<trk>
<name>hfmegi9</name>
<cmt>v</cmt>
<desc>Eugies Chemin n°i9 </desc>
<link href="https://chemins.be/eugies/chemin/i9"/><trkseg>
<trkpt lat="50.395240" lon="3.861614"><time>2026-05-02T17:26:05Z</time></trkpt>
<trkpt lat="50.395921" lon="3.856405"><time>2026-05-02T17:36:05Z</time></trkpt>
<trkpt lat="50.396010" lon="3.854361"><time>2026-05-02T17:46:05Z</time></trkpt>
<trkpt lat="50.396020" lon="3.851432"><time>2026-05-02T17:56:05Z</time></trkpt>
<trkpt lat="50.396133" lon="3.851137"><time>2026-05-02T18:06:05Z</time></trkpt>
</trkseg>
</trk>
<trk>
<name>hfmfm1</name>
<cmt>v</cmt>
<desc>Frameries Chemin n°1 </desc>
<link href="https://chemins.be/frameries/chemin/1"/><trkseg>
<trkpt lat="50.397007" lon="3.905828"><time>2026-05-02T17:26:05Z</time></trkpt>
<trkpt lat="50.396210" lon="3.907599"><time>2026-05-02T17:36:05Z</time></trkpt>
</trkseg></trk>
<trk>
<name>hfmfm1</name>
<cmt>s</cmt>
<desc>Frameries Chemin n°1 </desc>
<link href="https://chemins.be/frameries/chemin/1"/><trkseg>
<trkpt lat="50.396210" lon="3.907599"><time>2026-05-02T17:36:05Z</time></trkpt>
<trkpt lat="50.395632" lon="3.908596"><time>2026-05-02T17:46:05Z</time></trkpt>
</trkseg></trk>
<trk>
<name>hfmfm1</name>
<cmt>v</cmt>
<desc>Frameries Chemin n°1 </desc>
<link href="https://chemins.be/frameries/chemin/1"/><trkseg>
<trkpt lat="50.395632" lon="3.908596"><time>2026-05-02T17:46:05Z</time></trkpt>
<trkpt lat="50.394010" lon="3.910120"><time>2026-05-02T17:56:05Z</time></trkpt>
</trkseg>
</trk>
<trk>
<name>hfmfm11</name>
<cmt>v</cmt>
<desc>Frameries Chemin n°11 Rue Joseph Wauters</desc>
<link href="https://chemins.be/frameries/chemin/11"/><trkseg>
<trkpt lat="50.401368" lon="3.901020"><time>2026-05-02T17:26:05Z</time></trkpt>
<trkpt lat="50.400922" lon="3.902298"><time>2026-05-02T17:36:05Z</time></trkpt>
<trkpt lat="50.400179" lon="3.903149"><time>2026-05-02T17:46:05Z</time></trkpt>
<trkpt lat="50.399650" lon="3.903677"><time>2026-05-02T17:56:05Z</time></trkpt>
<trkpt lat="50.399219" lon="3.904018"><time>2026-05-02T18:06:05Z</time></trkpt>
<trkpt lat="50.398192" lon="3.904769"><time>2026-05-02T18:16:05Z</time></trkpt>
<trkpt lat="50.398137" lon="3.904887"><time>2026-05-02T18:26:05Z</time></trkpt>
<trkpt lat="50.397085" lon="3.905716"><time>2026-05-02T18:36:05Z</time></trkpt>
</trkseg>
</trk>
<trk>
<name>hfmfm15</name>
<cmt>r</cmt>
<desc>Frameries Chemin n°15 Rue des Fours à Chaux / Impasse des Fours à Chaux</desc>
<link href="https://chemins.be/frameries/chemin/15"/><trkseg>
<trkpt lat="50.412784" lon="3.926529"><time>2026-05-02T17:26:05Z</time></trkpt>
<trkpt lat="50.412893" lon="3.926164"><time>2026-05-02T17:36:05Z</time></trkpt>
<trkpt lat="50.412733" lon="3.922269"><time>2026-05-02T17:46:05Z</time></trkpt>
<trkpt lat="50.412559" lon="3.919208"><time>2026-05-02T17:56:05Z</time></trkpt>
<trkpt lat="50.412377" lon="3.915739"><time>2026-05-02T18:06:05Z</time></trkpt>
<trkpt lat="50.412292" lon="3.914918"><time>2026-05-02T18:16:05Z</time></trkpt>
<trkpt lat="50.411844" lon="3.913643"><time>2026-05-02T18:26:05Z</time></trkpt>
<trkpt lat="50.411608" lon="3.913053"><time>2026-05-02T18:36:05Z</time></trkpt>
<trkpt lat="50.411575" lon="3.911603"><time>2026-05-02T18:46:05Z</time></trkpt>
<trkpt lat="50.411635" lon="3.909476"><time>2026-05-02T18:56:05Z</time></trkpt>
<trkpt lat="50.410734" lon="3.906303"><time>2026-05-02T19:06:05Z</time></trkpt>
</trkseg></trk>
<trk>
<name>hfmfm15</name>
<cmt>v</cmt>
<desc>Frameries Chemin n°15 Rue des Fours à Chaux / Impasse des Fours à Chaux</desc>
<link href="https://chemins.be/frameries/chemin/15"/><trkseg>
<trkpt lat="50.410734" lon="3.906303"><time>2026-05-02T19:06:05Z</time></trkpt>
<trkpt lat="50.410607" lon="3.905854"><time>2026-05-02T19:16:05Z</time></trkpt>
<trkpt lat="50.410270" lon="3.905130"><time>2026-05-02T19:26:05Z</time></trkpt>
</trkseg></trk>
<trk>
<name>hfmfm15</name>
<cmt>q</cmt>
<desc>Frameries Chemin n°15 Rue des Fours à Chaux / Impasse des Fours à Chaux</desc>
<link href="https://chemins.be/frameries/chemin/15"/><trkseg>
<trkpt lat="50.410270" lon="3.905130"><time>2026-05-02T19:26:05Z</time></trkpt>
<trkpt lat="50.410112" lon="3.904736"><time>2026-05-02T19:36:05Z</time></trkpt>
</trkseg></trk>
<trk>
<name>hfmfm15</name>
<cmt>r</cmt>
<desc>Frameries Chemin n°15 Rue des Fours à Chaux / Impasse des Fours à Chaux</desc>
<link href="https://chemins.be/frameries/chemin/15"/><trkseg>
<trkpt lat="50.410112" lon="3.904736"><time>2026-05-02T19:36:05Z</time></trkpt>
<trkpt lat="50.409743" lon="3.903743"><time>2026-05-02T19:46:05Z</time></trkpt>
</trkseg>
</trk>
<trk>
<name>hfmfm16</name>
<cmt>v</cmt>
<desc>Frameries Sentier n°16 </desc>
<link href="https://chemins.be/frameries/sentier/16"/><trkseg>
<trkpt lat="50.399842" lon="3.893781"><time>2026-05-02T17:26:05Z</time></trkpt>
<trkpt lat="50.398912" lon="3.894131"><time>2026-05-02T17:36:05Z</time></trkpt>
<trkpt lat="50.398199" lon="3.894203"><time>2026-05-02T17:46:05Z</time></trkpt>
</trkseg></trk>
<trk>
<name>hfmfm16</name>
<cmt>q</cmt>
<desc>Frameries Sentier n°16 </desc>
<link href="https://chemins.be/frameries/sentier/16"/><trkseg>
<trkpt lat="50.398199" lon="3.894203"><time>2026-05-02T17:46:05Z</time></trkpt>
<trkpt lat="50.395964" lon="3.894198"><time>2026-05-02T17:56:05Z</time></trkpt>
<trkpt lat="50.393197" lon="3.892629"><time>2026-05-02T18:06:05Z</time></trkpt>
</trkseg>
</trk>
<trk>
<name>hfmfm17</name>
<cmt>r</cmt>
<desc>Frameries Sentier n°17 Rue César Depaepe / Rue Ferrer</desc>
<link href="https://chemins.be/frameries/sentier/17"/><trkseg>
<trkpt lat="50.407292" lon="3.898022"><time>2026-05-02T17:26:05Z</time></trkpt>
<trkpt lat="50.405296" lon="3.900880"><time>2026-05-02T17:36:05Z</time></trkpt>
<trkpt lat="50.405142" lon="3.901773"><time>2026-05-02T17:46:05Z</time></trkpt>
</trkseg></trk>
<trk>
<name>hfmfm17</name>
<cmt>v</cmt>
<desc>Frameries Sentier n°17 Rue César Depaepe / Rue Ferrer</desc>
<link href="https://chemins.be/frameries/sentier/17"/><trkseg>
<trkpt lat="50.405142" lon="3.901773"><time>2026-05-02T17:46:05Z</time></trkpt>
<trkpt lat="50.404693" lon="3.901781"><time>2026-05-02T17:56:05Z</time></trkpt>
<trkpt lat="50.404375" lon="3.901936"><time>2026-05-02T18:06:05Z</time></trkpt>
<trkpt lat="50.403924" lon="3.902225"><time>2026-05-02T18:16:05Z</time></trkpt>
<trkpt lat="50.402964" lon="3.902485"><time>2026-05-02T18:26:05Z</time></trkpt>
<trkpt lat="50.401324" lon="3.902675"><time>2026-05-02T18:36:05Z</time></trkpt>
<trkpt lat="50.400147" lon="3.903190"><time>2026-05-02T18:46:05Z</time></trkpt>
<trkpt lat="50.399654" lon="3.903670"><time>2026-05-02T18:56:05Z</time></trkpt>
<trkpt lat="50.398188" lon="3.904790"><time>2026-05-02T19:06:05Z</time></trkpt>
<trkpt lat="50.398125" lon="3.904889"><time>2026-05-02T19:16:05Z</time></trkpt>
<trkpt lat="50.397076" lon="3.905778"><time>2026-05-02T19:26:05Z</time></trkpt>
<trkpt lat="50.396246" lon="3.907548"><time>2026-05-02T19:36:05Z</time></trkpt>
</trkseg></trk>
<trk>
<name>hfmfm17</name>
<cmt>s</cmt>
<desc>Frameries Sentier n°17 Rue César Depaepe / Rue Ferrer</desc>
<link href="https://chemins.be/frameries/sentier/17"/><trkseg>
<trkpt lat="50.396246" lon="3.907548"><time>2026-05-02T19:36:05Z</time></trkpt>
<trkpt lat="50.395663" lon="3.908639"><time>2026-05-02T19:46:05Z</time></trkpt>
<trkpt lat="50.394230" lon="3.912433"><time>2026-05-02T19:56:05Z</time></trkpt>
</trkseg>
</trk>
<trk>
<name>hfmfm19</name>
<cmt>q</cmt>
<desc>Frameries Sentier n°19 </desc>
<link href="https://chemins.be/frameries/sentier/19"/><trkseg>
<trkpt lat="50.408728" lon="3.897574"><time>2026-05-02T17:26:05Z</time></trkpt>
<trkpt lat="50.408928" lon="3.898222"><time>2026-05-02T17:36:05Z</time></trkpt>
</trkseg>
</trk>
<trk>
<name>hfmfm2</name>
<cmt>q</cmt>
<desc>Frameries Chemin n°2 Chemin de Binche / Rue de Binche - Chemin de Binche</desc>
<link href="https://chemins.be/frameries/chemin/2"/><trkseg>
<trkpt lat="50.424313" lon="3.899192"><time>2026-05-02T17:26:05Z</time></trkpt>
<trkpt lat="50.422496" lon="3.903564"><time>2026-05-02T17:36:05Z</time></trkpt>
</trkseg></trk>
<trk>
<name>hfmfm2</name>
<cmt>r</cmt>
<desc>Frameries Chemin n°2 Chemin de Binche / Rue de Binche - Chemin de Binche</desc>
<link href="https://chemins.be/frameries/chemin/2"/><trkseg>
<trkpt lat="50.422496" lon="3.903564"><time>2026-05-02T17:36:05Z</time></trkpt>
<trkpt lat="50.422099" lon="3.904607"><time>2026-05-02T17:46:05Z</time></trkpt>
<trkpt lat="50.421230" lon="3.907893"><time>2026-05-02T17:56:05Z</time></trkpt>
</trkseg></trk>
<trk>
<name>hfmfm2</name>
<cmt>v</cmt>
<desc>Frameries Chemin n°2 Chemin de Binche / Rue de Binche - Chemin de Binche</desc>
<link href="https://chemins.be/frameries/chemin/2"/><trkseg>
<trkpt lat="50.421230" lon="3.907893"><time>2026-05-02T17:56:05Z</time></trkpt>
<trkpt lat="50.420958" lon="3.908606"><time>2026-05-02T18:06:05Z</time></trkpt>
<trkpt lat="50.420432" lon="3.909849"><time>2026-05-02T18:16:05Z</time></trkpt>
<trkpt lat="50.420129" lon="3.910471"><time>2026-05-02T18:26:05Z</time></trkpt>
<trkpt lat="50.419897" lon="3.910868"><time>2026-05-02T18:36:05Z</time></trkpt>
<trkpt lat="50.419602" lon="3.911490"><time>2026-05-02T18:46:05Z</time></trkpt>
<trkpt lat="50.418498" lon="3.914061"><time>2026-05-02T18:56:05Z</time></trkpt>
</trkseg></trk>
<trk>
<name>hfmfm2</name>
<cmt>r</cmt>
<desc>Frameries Chemin n°2 Chemin de Binche / Rue de Binche - Chemin de Binche</desc>
<link href="https://chemins.be/frameries/chemin/2"/><trkseg>
<trkpt lat="50.418498" lon="3.914061"><time>2026-05-02T18:56:05Z</time></trkpt>
<trkpt lat="50.417294" lon="3.916690"><time>2026-05-02T19:06:05Z</time></trkpt>
<trkpt lat="50.417116" lon="3.917128"><time>2026-05-02T19:16:05Z</time></trkpt>
<trkpt lat="50.416831" lon="3.917876"><time>2026-05-02T19:26:05Z</time></trkpt>
<trkpt lat="50.416609" lon="3.918596"><time>2026-05-02T19:36:05Z</time></trkpt>
<trkpt lat="50.416483" lon="3.919099"><time>2026-05-02T19:46:05Z</time></trkpt>
<trkpt lat="50.416343" lon="3.919598"><time>2026-05-02T19:56:05Z</time></trkpt>
<trkpt lat="50.416202" lon="3.920260"><time>2026-05-02T20:06:05Z</time></trkpt>
<trkpt lat="50.415848" lon="3.921628"><time>2026-05-02T20:16:05Z</time></trkpt>
</trkseg></trk>
<trk>
<name>hfmfm2</name>
<cmt>s</cmt>
<desc>Frameries Chemin n°2 Chemin de Binche / Rue de Binche - Chemin de Binche</desc>
<link href="https://chemins.be/frameries/chemin/2"/><trkseg>
<trkpt lat="50.415848" lon="3.921628"><time>2026-05-02T20:16:05Z</time></trkpt>
<trkpt lat="50.414096" lon="3.926710"><time>2026-05-02T20:26:05Z</time></trkpt>
<trkpt lat="50.413988" lon="3.927301"><time>2026-05-02T20:36:05Z</time></trkpt>
</trkseg>
</trk>
<trk>
<name>hfmfm20</name>
<cmt>q</cmt>
<desc>Frameries Sentier n°20 </desc>
<link href="https://chemins.be/frameries/sentier/20"/><trkseg>
<trkpt lat="50.414554" lon="3.890271"><time>2026-05-02T17:26:05Z</time></trkpt>
<trkpt lat="50.415490" lon="3.894562"><time>2026-05-02T17:36:05Z</time></trkpt>
<trkpt lat="50.415856" lon="3.894880"><time>2026-05-02T17:46:05Z</time></trkpt>
<trkpt lat="50.418022" lon="3.896905"><time>2026-05-02T17:56:05Z</time></trkpt>
<trkpt lat="50.418372" lon="3.897772"><time>2026-05-02T18:06:05Z</time></trkpt>
<trkpt lat="50.420282" lon="3.899596"><time>2026-05-02T18:16:05Z</time></trkpt>
<trkpt lat="50.423091" lon="3.902278"><time>2026-05-02T18:26:05Z</time></trkpt>
</trkseg>
</trk>
<trk>
<name>hfmfm21</name>
<cmt>r</cmt>
<desc>Frameries Sentier n°21 Rue de Lambrechies</desc>
<link href="https://chemins.be/frameries/sentier/21"/><trkseg>
<trkpt lat="50.411177" lon="3.888185"><time>2026-05-02T17:26:05Z</time></trkpt>
<trkpt lat="50.411004" lon="3.886245"><time>2026-05-02T17:36:05Z</time></trkpt>
<trkpt lat="50.411089" lon="3.884750"><time>2026-05-02T17:46:05Z</time></trkpt>
</trkseg>
</trk>
<trk>
<name>hfmfm22</name>
<cmt>q</cmt>
<desc>Frameries Sentier n°22 </desc>
<link href="https://chemins.be/frameries/sentier/22"/><trkseg>
<trkpt lat="50.418505" lon="3.884472"><time>2026-05-02T17:26:05Z</time></trkpt>
<trkpt lat="50.413665" lon="3.884643"><time>2026-05-02T17:36:05Z</time></trkpt>
<trkpt lat="50.411053" lon="3.884193"><time>2026-05-02T17:46:05Z</time></trkpt>
</trkseg>
</trk>
<trk>
<name>hfmfm23</name>
<cmt>r</cmt>
<desc>Frameries Sentier n°23 Rue Joseph Bidez</desc>
<link href="https://chemins.be/frameries/sentier/23"/><trkseg>
<trkpt lat="50.412360" lon="3.892137"><time>2026-05-02T17:26:05Z</time></trkpt>
<trkpt lat="50.410829" lon="3.890920"><time>2026-05-02T17:36:05Z</time></trkpt>
</trkseg></trk>
<trk>
<name>hfmfm23</name>
<cmt>q</cmt>
<desc>Frameries Sentier n°23 Rue Joseph Bidez</desc>
<link href="https://chemins.be/frameries/sentier/23"/><trkseg>
<trkpt lat="50.410829" lon="3.890920"><time>2026-05-02T17:36:05Z</time></trkpt>
<trkpt lat="50.409707" lon="3.890083"><time>2026-05-02T17:46:05Z</time></trkpt>
<trkpt lat="50.408671" lon="3.888592"><time>2026-05-02T17:56:05Z</time></trkpt>
<trkpt lat="50.408723" lon="3.888189"><time>2026-05-02T18:06:05Z</time></trkpt>
</trkseg>
</trk>
<trk>
<name>hfmfm25</name>
<cmt>q</cmt>
<desc>Frameries Sentier n°25 </desc>
<link href="https://chemins.be/frameries/sentier/25"/><trkseg>
<trkpt lat="50.400738" lon="3.894958"><time>2026-05-02T17:26:05Z</time></trkpt>
<trkpt lat="50.400169" lon="3.896263"><time>2026-05-02T17:36:05Z</time></trkpt>
<trkpt lat="50.400230" lon="3.897576"><time>2026-05-02T17:46:05Z</time></trkpt>
<trkpt lat="50.400738" lon="3.898220"><time>2026-05-02T17:56:05Z</time></trkpt>
<trkpt lat="50.399721" lon="3.899567"><time>2026-05-02T18:06:05Z</time></trkpt>
<trkpt lat="50.399896" lon="3.900125"><time>2026-05-02T18:16:05Z</time></trkpt>
<trkpt lat="50.399239" lon="3.900915"><time>2026-05-02T18:26:05Z</time></trkpt>
</trkseg></trk>
<trk>
<name>hfmfm25</name>
<cmt>d</cmt>
<desc>Frameries Sentier n°25 </desc>
<link href="https://chemins.be/frameries/sentier/25"/><trkseg>
<trkpt lat="50.399239" lon="3.900915"><time>2026-05-02T18:26:05Z</time></trkpt>
<trkpt lat="50.399369" lon="3.901205"><time>2026-05-02T18:36:05Z</time></trkpt>
<trkpt lat="50.399424" lon="3.901500"><time>2026-05-02T18:46:05Z</time></trkpt>
<trkpt lat="50.399524" lon="3.901738"><time>2026-05-02T18:56:05Z</time></trkpt>
<trkpt lat="50.399533" lon="3.901851"><time>2026-05-02T19:06:05Z</time></trkpt>
<trkpt lat="50.399683" lon="3.903425"><time>2026-05-02T19:16:05Z</time></trkpt>
<trkpt lat="50.399639" lon="3.903664"><time>2026-05-02T19:26:05Z</time></trkpt>
</trkseg>
</trk>
<trk>
<name>hfmfm26</name>
<cmt>r</cmt>
<desc>Frameries Sentier n°26 </desc>
<link href="https://chemins.be/frameries/sentier/26"/><trkseg>
<trkpt lat="50.411612" lon="3.893135"><time>2026-05-02T17:26:05Z</time></trkpt>
<trkpt lat="50.411905" lon="3.893463"><time>2026-05-02T17:36:05Z</time></trkpt>
</trkseg>
</trk>
<trk>
<name>hfmfm29</name>
<cmt>r</cmt>
<desc>Frameries Sentier n°29 </desc>
<link href="https://chemins.be/frameries/sentier/29"/><trkseg>
<trkpt lat="50.411564" lon="3.894521"><time>2026-05-02T17:26:05Z</time></trkpt>
<trkpt lat="50.411559" lon="3.893778"><time>2026-05-02T17:36:05Z</time></trkpt>
</trkseg></trk>
<trk>
<name>hfmfm29</name>
<cmt>v</cmt>
<desc>Frameries Sentier n°29 </desc>
<link href="https://chemins.be/frameries/sentier/29"/><trkseg>
<trkpt lat="50.411559" lon="3.893778"><time>2026-05-02T17:36:05Z</time></trkpt>
<trkpt lat="50.411582" lon="3.893162"><time>2026-05-02T17:46:05Z</time></trkpt>
</trkseg>
</trk>
<trk>
<name>hfmfm3</name>
<cmt>v</cmt>
<desc>Frameries Chemin n°3 </desc>
<link href="https://chemins.be/frameries/chemin/3"/><trkseg>
<trkpt lat="50.414563" lon="3.910244"><time>2026-05-02T17:26:05Z</time></trkpt>
<trkpt lat="50.416753" lon="3.912294"><time>2026-05-02T17:36:05Z</time></trkpt>
</trkseg></trk>
<trk>
<name>hfmfm3</name>
<cmt>s</cmt>
<desc>Frameries Chemin n°3 </desc>
<link href="https://chemins.be/frameries/chemin/3"/><trkseg>
<trkpt lat="50.416753" lon="3.912294"><time>2026-05-02T17:36:05Z</time></trkpt>
<trkpt lat="50.417613" lon="3.913099"><time>2026-05-02T17:46:05Z</time></trkpt>
<trkpt lat="50.418579" lon="3.914159"><time>2026-05-02T17:56:05Z</time></trkpt>
</trkseg>
</trk>
<trk>
<name>hfmfm30</name>
<cmt>q</cmt>
<desc>Frameries Sentier n°30 </desc>
<link href="https://chemins.be/frameries/sentier/30"/><trkseg>
<trkpt lat="50.412381" lon="3.892078"><time>2026-05-02T17:26:05Z</time></trkpt>
<trkpt lat="50.411738" lon="3.892872"><time>2026-05-02T17:36:05Z</time></trkpt>
<trkpt lat="50.411620" lon="3.893111"><time>2026-05-02T17:46:05Z</time></trkpt>
</trkseg>
</trk>
<trk>
<name>hfmfm37</name>
<cmt>b</cmt>
<desc>Frameries Chemin n°37 </desc>
<link href="https://chemins.be/frameries/chemin/37"/><trkseg>
<trkpt lat="50.408591" lon="3.894080"><time>2026-05-02T17:26:05Z</time></trkpt>
<trkpt lat="50.408706" lon="3.893530"><time>2026-05-02T17:36:05Z</time></trkpt>
</trkseg></trk>
<trk>
<name>hfmfm37</name>
<cmt>s</cmt>
<desc>Frameries Chemin n°37 </desc>
<link href="https://chemins.be/frameries/chemin/37"/><trkseg>
<trkpt lat="50.408706" lon="3.893530"><time>2026-05-02T17:36:05Z</time></trkpt>
<trkpt lat="50.408794" lon="3.893136"><time>2026-05-02T17:46:05Z</time></trkpt>
</trkseg>
</trk>
<trk>
<name>hfmfm38</name>
<cmt>r</cmt>
<desc>Frameries Sentier n°38 </desc>
<link href="https://chemins.be/frameries/sentier/38"/><trkseg>
<trkpt lat="50.407795" lon="3.897846"><time>2026-05-02T17:26:05Z</time></trkpt>
<trkpt lat="50.407987" lon="3.897425"><time>2026-05-02T17:36:05Z</time></trkpt>
</trkseg>
</trk>
<trk>
<name>hfmfm39</name>
<cmt>r</cmt>
<desc>Frameries Chemin n°39 </desc>
<link href="https://chemins.be/frameries/chemin/39"/><trkseg>
<trkpt lat="50.414168" lon="3.888845"><time>2026-05-02T17:26:05Z</time></trkpt>
<trkpt lat="50.415209" lon="3.888958"><time>2026-05-02T17:36:05Z</time></trkpt>
<trkpt lat="50.415351" lon="3.888801"><time>2026-05-02T17:46:05Z</time></trkpt>
</trkseg></trk>
<trk>
<name>hfmfm39</name>
<cmt>v</cmt>
<desc>Frameries Chemin n°39 </desc>
<link href="https://chemins.be/frameries/chemin/39"/><trkseg>
<trkpt lat="50.415351" lon="3.888801"><time>2026-05-02T17:46:05Z</time></trkpt>
<trkpt lat="50.415727" lon="3.889198"><time>2026-05-02T17:56:05Z</time></trkpt>
<trkpt lat="50.418038" lon="3.892020"><time>2026-05-02T18:06:05Z</time></trkpt>
</trkseg></trk>
<trk>
<name>hfmfm39</name>
<cmt>d</cmt>
<desc>Frameries Chemin n°39 </desc>
<link href="https://chemins.be/frameries/chemin/39"/><trkseg>
<trkpt lat="50.418038" lon="3.892020"><time>2026-05-02T18:06:05Z</time></trkpt>
<trkpt lat="50.418832" lon="3.892990"><time>2026-05-02T18:16:05Z</time></trkpt>
</trkseg></trk>
<trk>
<name>hfmfm39</name>
<cmt>v</cmt>
<desc>Frameries Chemin n°39 </desc>
<link href="https://chemins.be/frameries/chemin/39"/><trkseg>
<trkpt lat="50.418832" lon="3.892990"><time>2026-05-02T18:16:05Z</time></trkpt>
<trkpt lat="50.419291" lon="3.893549"><time>2026-05-02T18:26:05Z</time></trkpt>
</trkseg>
</trk>
<trk>
<name>hfmfm40</name>
<cmt>r</cmt>
<desc>Frameries Chemin n°40 Rue des Martyrs</desc>
<link href="https://chemins.be/frameries/chemin/40"/><trkseg>
<trkpt lat="50.406044" lon="3.889493"><time>2026-05-02T17:26:05Z</time></trkpt>
<trkpt lat="50.406342" lon="3.889737"><time>2026-05-02T17:36:05Z</time></trkpt>
<trkpt lat="50.406826" lon="3.890836"><time>2026-05-02T17:46:05Z</time></trkpt>
<trkpt lat="50.407470" lon="3.891218"><time>2026-05-02T17:56:05Z</time></trkpt>
<trkpt lat="50.407886" lon="3.891463"><time>2026-05-02T18:06:05Z</time></trkpt>
</trkseg>
</trk>
<trk>
<name>hfmfm41</name>
<cmt>v</cmt>
<desc>Frameries Sentier n°41 Rue Brigade Piron / Rue Jean Volders</desc>
<link href="https://chemins.be/frameries/sentier/41"/><trkseg>
<trkpt lat="50.395305" lon="3.890176"><time>2026-05-02T17:26:05Z</time></trkpt>
<trkpt lat="50.395386" lon="3.890176"><time>2026-05-02T17:36:05Z</time></trkpt>
<trkpt lat="50.395764" lon="3.890369"><time>2026-05-02T17:46:05Z</time></trkpt>
<trkpt lat="50.396908" lon="3.890709"><time>2026-05-02T17:56:05Z</time></trkpt>
<trkpt lat="50.397277" lon="3.890902"><time>2026-05-02T18:06:05Z</time></trkpt>
<trkpt lat="50.397958" lon="3.891566"><time>2026-05-02T18:16:05Z</time></trkpt>
<trkpt lat="50.399758" lon="3.893591"><time>2026-05-02T18:26:05Z</time></trkpt>
</trkseg></trk>
<trk>
<name>hfmfm41</name>
<cmt>r</cmt>
<desc>Frameries Sentier n°41 Rue Brigade Piron / Rue Jean Volders</desc>
<link href="https://chemins.be/frameries/sentier/41"/><trkseg>
<trkpt lat="50.399758" lon="3.893591"><time>2026-05-02T18:26:05Z</time></trkpt>
<trkpt lat="50.400793" lon="3.894859"><time>2026-05-02T18:36:05Z</time></trkpt>
</trkseg></trk>
<trk>
<name>hfmfm41</name>
<cmt>q</cmt>
<desc>Frameries Sentier n°41 Rue Brigade Piron / Rue Jean Volders</desc>
<link href="https://chemins.be/frameries/sentier/41"/><trkseg>
<trkpt lat="50.400793" lon="3.894859"><time>2026-05-02T18:36:05Z</time></trkpt>
<trkpt lat="50.404039" lon="3.894675"><time>2026-05-02T18:46:05Z</time></trkpt>
</trkseg></trk>
<trk>
<name>hfmfm41</name>
<cmt>r</cmt>
<desc>Frameries Sentier n°41 Rue Brigade Piron / Rue Jean Volders</desc>
<link href="https://chemins.be/frameries/sentier/41"/><trkseg>
<trkpt lat="50.404039" lon="3.894675"><time>2026-05-02T18:46:05Z</time></trkpt>
<trkpt lat="50.404654" lon="3.894696"><time>2026-05-02T18:56:05Z</time></trkpt>
</trkseg></trk>
<trk>
<name>hfmfm41</name>
<cmt>q</cmt>
<desc>Frameries Sentier n°41 Rue Brigade Piron / Rue Jean Volders</desc>
<link href="https://chemins.be/frameries/sentier/41"/><trkseg>
<trkpt lat="50.404654" lon="3.894696"><time>2026-05-02T18:56:05Z</time></trkpt>
<trkpt lat="50.406044" lon="3.894779"><time>2026-05-02T19:06:05Z</time></trkpt>
<trkpt lat="50.406349" lon="3.895104"><time>2026-05-02T19:16:05Z</time></trkpt>
</trkseg>
</trk>
<trk>
<name>hfmfm42</name>
<cmt>r</cmt>
<desc>Frameries Sentier n°42 Rue Émile Vandervelde / Rue des Mineurs / Rue de la Maladerie</desc>
<link href="https://chemins.be/frameries/sentier/42"/><trkseg>
<trkpt lat="50.404037" lon="3.894728"><time>2026-05-02T17:26:05Z</time></trkpt>
<trkpt lat="50.404286" lon="3.895368"><time>2026-05-02T17:36:05Z</time></trkpt>
<trkpt lat="50.405334" lon="3.896651"><time>2026-05-02T17:46:05Z</time></trkpt>
<trkpt lat="50.405394" lon="3.896612"><time>2026-05-02T17:56:05Z</time></trkpt>
</trkseg></trk>
<trk>
<name>hfmfm42</name>
<cmt>v</cmt>
<desc>Frameries Sentier n°42 Rue Émile Vandervelde / Rue des Mineurs / Rue de la Maladerie</desc>
<link href="https://chemins.be/frameries/sentier/42"/><trkseg>
<trkpt lat="50.405394" lon="3.896612"><time>2026-05-02T17:56:05Z</time></trkpt>
<trkpt lat="50.405676" lon="3.897097"><time>2026-05-02T18:06:05Z</time></trkpt>
<trkpt lat="50.405707" lon="3.897105"><time>2026-05-02T18:16:05Z</time></trkpt>
</trkseg></trk>
<trk>
<name>hfmfm42</name>
<cmt>q</cmt>
<desc>Frameries Sentier n°42 Rue Émile Vandervelde / Rue des Mineurs / Rue de la Maladerie</desc>
<link href="https://chemins.be/frameries/sentier/42"/><trkseg>
<trkpt lat="50.405707" lon="3.897105"><time>2026-05-02T18:16:05Z</time></trkpt>
<trkpt lat="50.405771" lon="3.897296"><time>2026-05-02T18:26:05Z</time></trkpt>
</trkseg></trk>
<trk>
<name>hfmfm42</name>
<cmt>r</cmt>
<desc>Frameries Sentier n°42 Rue Émile Vandervelde / Rue des Mineurs / Rue de la Maladerie</desc>
<link href="https://chemins.be/frameries/sentier/42"/><trkseg>
<trkpt lat="50.405771" lon="3.897296"><time>2026-05-02T18:26:05Z</time></trkpt>
<trkpt lat="50.406507" lon="3.899122"><time>2026-05-02T18:36:05Z</time></trkpt>
<trkpt lat="50.406690" lon="3.899476"><time>2026-05-02T18:46:05Z</time></trkpt>
</trkseg>
</trk>
<trk>
<name>hfmfm44</name>
<cmt>r</cmt>
<desc>Frameries Sentier n°44 Rue du Millénaire</desc>
<link href="https://chemins.be/frameries/sentier/44"/><trkseg>
<trkpt lat="50.407456" lon="3.901968"><time>2026-05-02T17:26:05Z</time></trkpt>
<trkpt lat="50.407757" lon="3.902552"><time>2026-05-02T17:36:05Z</time></trkpt>
<trkpt lat="50.407850" lon="3.903114"><time>2026-05-02T17:46:05Z</time></trkpt>
</trkseg></trk>
<trk>
<name>hfmfm44</name>
<cmt>q</cmt>
<desc>Frameries Sentier n°44 Rue du Millénaire</desc>
<link href="https://chemins.be/frameries/sentier/44"/><trkseg>
<trkpt lat="50.407850" lon="3.903114"><time>2026-05-02T17:46:05Z</time></trkpt>
<trkpt lat="50.408619" lon="3.906358"><time>2026-05-02T17:56:05Z</time></trkpt>
</trkseg>
</trk>
<trk>
<name>hfmfm45</name>
<cmt>v</cmt>
<desc>Frameries Sentier n°45 Rue des Écluses</desc>
<link href="https://chemins.be/frameries/sentier/45"/><trkseg>
<trkpt lat="50.409814" lon="3.902819"><time>2026-05-02T17:26:05Z</time></trkpt>
<trkpt lat="50.409166" lon="3.903525"><time>2026-05-02T17:36:05Z</time></trkpt>
</trkseg>
</trk>
<trk>
<name>hfmfm46</name>
<cmt>v</cmt>
<desc>Frameries Sentier n°46 </desc>
<link href="https://chemins.be/frameries/sentier/46"/><trkseg>
<trkpt lat="50.409408" lon="3.901943"><time>2026-05-02T17:26:05Z</time></trkpt>
<trkpt lat="50.409013" lon="3.902387"><time>2026-05-02T17:36:05Z</time></trkpt>
<trkpt lat="50.408769" lon="3.902662"><time>2026-05-02T17:46:05Z</time></trkpt>
</trkseg>
</trk>
<trk>
<name>hfmfm47</name>
<cmt>v</cmt>
<desc>Frameries Sentier n°47 Sentier communal n°47</desc>
<link href="https://chemins.be/frameries/sentier/47"/><trkseg>
<trkpt lat="50.409411" lon="3.903295"><time>2026-05-02T17:26:05Z</time></trkpt>
<trkpt lat="50.409131" lon="3.902659"><time>2026-05-02T17:36:05Z</time></trkpt>
<trkpt lat="50.409025" lon="3.902418"><time>2026-05-02T17:46:05Z</time></trkpt>
</trkseg>
</trk>
<trk>
<name>hfmfm49</name>
<cmt>q</cmt>
<desc>Frameries Chemin n°49 </desc>
<link href="https://chemins.be/frameries/chemin/49"/><trkseg>
<trkpt lat="50.416085" lon="3.920765"><time>2026-05-02T17:26:05Z</time></trkpt>
<trkpt lat="50.412852" lon="3.922246"><time>2026-05-02T17:36:05Z</time></trkpt>
</trkseg></trk>
<trk>
<name>hfmfm49</name>
<cmt>s</cmt>
<desc>Frameries Chemin n°49 </desc>
<link href="https://chemins.be/frameries/chemin/49"/><trkseg>
<trkpt lat="50.412852" lon="3.922246"><time>2026-05-02T17:36:05Z</time></trkpt>
<trkpt lat="50.410315" lon="3.923815"><time>2026-05-02T17:46:05Z</time></trkpt>
</trkseg>
</trk>
<trk>
<name>hfmfm50</name>
<cmt>q</cmt>
<desc>Frameries Chemin n°50 Rue du Bois Bourdon</desc>
<link href="https://chemins.be/frameries/chemin/50"/><trkseg>
<trkpt lat="50.396709" lon="3.913316"><time>2026-05-02T17:26:05Z</time></trkpt>
<trkpt lat="50.398737" lon="3.911205"><time>2026-05-02T17:36:05Z</time></trkpt>
<trkpt lat="50.399767" lon="3.910545"><time>2026-05-02T17:46:05Z</time></trkpt>
</trkseg>
</trk>
<trk>
<name>hfmfm54</name>
<cmt>v</cmt>
<desc>Frameries Chemin n°54 </desc>
<link href="https://chemins.be/frameries/chemin/54"/><trkseg>
<trkpt lat="50.410068" lon="3.894713"><time>2026-05-02T17:26:05Z</time></trkpt>
<trkpt lat="50.410487" lon="3.893681"><time>2026-05-02T17:36:05Z</time></trkpt>
</trkseg>
</trk>
<trk>
<name>hfmfm6</name>
<cmt>r</cmt>
<desc>Frameries Chemin n°6 Rue des Prés / Rue du Temple</desc>
<link href="https://chemins.be/frameries/chemin/6"/><trkseg>
<trkpt lat="50.395866" lon="3.902853"><time>2026-05-02T17:26:05Z</time></trkpt>
<trkpt lat="50.394729" lon="3.900030"><time>2026-05-02T17:36:05Z</time></trkpt>
</trkseg></trk>
<trk>
<name>hfmfm6</name>
<cmt>v</cmt>
<desc>Frameries Chemin n°6 Rue des Prés / Rue du Temple</desc>
<link href="https://chemins.be/frameries/chemin/6"/><trkseg>
<trkpt lat="50.394729" lon="3.900030"><time>2026-05-02T17:36:05Z</time></trkpt>
<trkpt lat="50.393747" lon="3.898349"><time>2026-05-02T17:46:05Z</time></trkpt>
<trkpt lat="50.393156" lon="3.896653"><time>2026-05-02T17:56:05Z</time></trkpt>
<trkpt lat="50.392132" lon="3.894723"><time>2026-05-02T18:06:05Z</time></trkpt>
</trkseg>
</trk>
<trk>
<name>hfmfm7</name>
<cmt>q</cmt>
<desc>Frameries Chemin n°7 </desc>
<link href="https://chemins.be/frameries/chemin/7"/><trkseg>
<trkpt lat="50.408304" lon="3.888152"><time>2026-05-02T17:26:05Z</time></trkpt>
<trkpt lat="50.408020" lon="3.889662"><time>2026-05-02T17:36:05Z</time></trkpt>
<trkpt lat="50.407888" lon="3.891508"><time>2026-05-02T17:46:05Z</time></trkpt>
<trkpt lat="50.407774" lon="3.892452"><time>2026-05-02T17:56:05Z</time></trkpt>
<trkpt lat="50.407292" lon="3.893671"><time>2026-05-02T18:06:05Z</time></trkpt>
</trkseg>
</trk>
<trk>
<name>hfmfmi1</name>
<cmt>v</cmt>
<desc>Frameries Sentier n°i1 </desc>
<link href="https://chemins.be/frameries/sentier/i1"/><trkseg>
<trkpt lat="50.399554" lon="3.913863"><time>2026-05-02T17:26:05Z</time></trkpt>
<trkpt lat="50.399867" lon="3.913578"><time>2026-05-02T17:36:05Z</time></trkpt>
<trkpt lat="50.399996" lon="3.914168"><time>2026-05-02T17:46:05Z</time></trkpt>
<trkpt lat="50.400014" lon="3.914280"><time>2026-05-02T17:56:05Z</time></trkpt>
<trkpt lat="50.400050" lon="3.914336"><time>2026-05-02T18:06:05Z</time></trkpt>
<trkpt lat="50.400113" lon="3.914448"><time>2026-05-02T18:16:05Z</time></trkpt>
<trkpt lat="50.400141" lon="3.914532"><time>2026-05-02T18:26:05Z</time></trkpt>
<trkpt lat="50.400151" lon="3.914743"><time>2026-05-02T18:36:05Z</time></trkpt>
<trkpt lat="50.399810" lon="3.915056"><time>2026-05-02T18:46:05Z</time></trkpt>
</trkseg>
</trk>
<trk>
<name>hfmfmi10</name>
<cmt>v</cmt>
<desc>Frameries Chemin n°i10 </desc>
<link href="https://chemins.be/frameries/chemin/i10"/><trkseg>
<trkpt lat="50.405094" lon="3.902558"><time>2026-05-02T17:26:05Z</time></trkpt>
<trkpt lat="50.405178" lon="3.902708"><time>2026-05-02T17:36:05Z</time></trkpt>
<trkpt lat="50.405126" lon="3.904367"><time>2026-05-02T17:46:05Z</time></trkpt>
<trkpt lat="50.405147" lon="3.904446"><time>2026-05-02T17:56:05Z</time></trkpt>
<trkpt lat="50.405187" lon="3.904349"><time>2026-05-02T18:06:05Z</time></trkpt>
<trkpt lat="50.405304" lon="3.903402"><time>2026-05-02T18:16:05Z</time></trkpt>
<trkpt lat="50.405639" lon="3.902454"><time>2026-05-02T18:26:05Z</time></trkpt>
<trkpt lat="50.405828" lon="3.902479"><time>2026-05-02T18:36:05Z</time></trkpt>
<trkpt lat="50.405876" lon="3.902819"><time>2026-05-02T18:46:05Z</time></trkpt>
<trkpt lat="50.405316" lon="3.904206"><time>2026-05-02T18:56:05Z</time></trkpt>
<trkpt lat="50.405225" lon="3.904553"><time>2026-05-02T19:06:05Z</time></trkpt>
<trkpt lat="50.405288" lon="3.904589"><time>2026-05-02T19:16:05Z</time></trkpt>
<trkpt lat="50.405472" lon="3.904385"><time>2026-05-02T19:26:05Z</time></trkpt>
<trkpt lat="50.405675" lon="3.903895"><time>2026-05-02T19:36:05Z</time></trkpt>
<trkpt lat="50.406035" lon="3.903327"><time>2026-05-02T19:46:05Z</time></trkpt>
<trkpt lat="50.406081" lon="3.903334"><time>2026-05-02T19:56:05Z</time></trkpt>
<trkpt lat="50.405892" lon="3.903799"><time>2026-05-02T20:06:05Z</time></trkpt>
<trkpt lat="50.405898" lon="3.903870"><time>2026-05-02T20:16:05Z</time></trkpt>
</trkseg>
</trk>
<trk>
<name>hfmfmi11</name>
<cmt>v</cmt>
<desc>Frameries Sentier n°i11 </desc>
<link href="https://chemins.be/frameries/sentier/i11"/><trkseg>
<trkpt lat="50.416067" lon="3.920801"><time>2026-05-02T17:26:05Z</time></trkpt>
<trkpt lat="50.416287" lon="3.921110"><time>2026-05-02T17:36:05Z</time></trkpt>
<trkpt lat="50.416196" lon="3.921374"><time>2026-05-02T17:46:05Z</time></trkpt>
<trkpt lat="50.415610" lon="3.922383"><time>2026-05-02T17:56:05Z</time></trkpt>
<trkpt lat="50.415257" lon="3.922841"><time>2026-05-02T18:06:05Z</time></trkpt>
<trkpt lat="50.413988" lon="3.925107"><time>2026-05-02T18:16:05Z</time></trkpt>
<trkpt lat="50.413888" lon="3.925429"><time>2026-05-02T18:26:05Z</time></trkpt>
<trkpt lat="50.413747" lon="3.925622"><time>2026-05-02T18:36:05Z</time></trkpt>
<trkpt lat="50.413628" lon="3.925522"><time>2026-05-02T18:46:05Z</time></trkpt>
</trkseg>
</trk>
<trk>
<name>hfmfmi2</name>
<cmt>v</cmt>
<desc>Frameries Chemin n°i2 Chemin de Binche</desc>
<link href="https://chemins.be/frameries/chemin/i2"/><trkseg>
<trkpt lat="50.415821" lon="3.921586"><time>2026-05-02T17:26:05Z</time></trkpt>
<trkpt lat="50.415303" lon="3.922478"><time>2026-05-02T17:36:05Z</time></trkpt>
<trkpt lat="50.413543" lon="3.925590"><time>2026-05-02T17:46:05Z</time></trkpt>
<trkpt lat="50.413481" lon="3.925689"><time>2026-05-02T17:56:05Z</time></trkpt>
<trkpt lat="50.413364" lon="3.925816"><time>2026-05-02T18:06:05Z</time></trkpt>
<trkpt lat="50.413311" lon="3.925845"><time>2026-05-02T18:16:05Z</time></trkpt>
<trkpt lat="50.412934" lon="3.925846"><time>2026-05-02T18:26:05Z</time></trkpt>
</trkseg>
</trk>
<trk>
<name>hfmfmi3</name>
<cmt>v</cmt>
<desc>Frameries Chemin n°i3 Rue Joseph Wauters</desc>
<link href="https://chemins.be/frameries/chemin/i3"/><trkseg>
<trkpt lat="50.401395" lon="3.901078"><time>2026-05-02T17:26:05Z</time></trkpt>
<trkpt lat="50.401286" lon="3.902559"><time>2026-05-02T17:36:05Z</time></trkpt>
</trkseg>
</trk>
<trk>
<name>hfmfmi4</name>
<cmt>v</cmt>
<desc>Frameries Chemin n°i4 </desc>
<link href="https://chemins.be/frameries/chemin/i4"/><trkseg>
<trkpt lat="50.397514" lon="3.907415"><time>2026-05-02T17:26:05Z</time></trkpt>
<trkpt lat="50.396889" lon="3.907553"><time>2026-05-02T17:36:05Z</time></trkpt>
<trkpt lat="50.395959" lon="3.908068"><time>2026-05-02T17:46:05Z</time></trkpt>
<trkpt lat="50.395684" lon="3.908615"><time>2026-05-02T17:56:05Z</time></trkpt>
</trkseg>
</trk>
<trk>
<name>hfmfmi6</name>
<cmt>v</cmt>
<desc>Frameries Chemin n°i6 </desc>
<link href="https://chemins.be/frameries/chemin/i6"/><trkseg>
<trkpt lat="50.414767" lon="3.900940"><time>2026-05-02T17:26:05Z</time></trkpt>
<trkpt lat="50.416545" lon="3.899181"><time>2026-05-02T17:36:05Z</time></trkpt>
<trkpt lat="50.416558" lon="3.898902"><time>2026-05-02T17:46:05Z</time></trkpt>
</trkseg>
</trk>
<trk>
<name>hfmfmi7</name>
<cmt>v</cmt>
<desc>Frameries Sentier n°i7 </desc>
<link href="https://chemins.be/frameries/sentier/i7"/><trkseg>
<trkpt lat="50.415150" lon="3.900286"><time>2026-05-02T17:26:05Z</time></trkpt>
<trkpt lat="50.415273" lon="3.900447"><time>2026-05-02T17:36:05Z</time></trkpt>
</trkseg>
</trk>
<trk>
<name>hfmfmi8</name>
<cmt>v</cmt>
<desc>Frameries Sentier n°i8 </desc>
<link href="https://chemins.be/frameries/sentier/i8"/><trkseg>
<trkpt lat="50.413885" lon="3.899792"><time>2026-05-02T17:26:05Z</time></trkpt>
<trkpt lat="50.414083" lon="3.899310"><time>2026-05-02T17:36:05Z</time></trkpt>
</trkseg>
</trk>
<trk>
<name>hfmfmi9</name>
<cmt>v</cmt>
<desc>Frameries Sentier n°i9 </desc>
<link href="https://chemins.be/frameries/sentier/i9"/><trkseg>
<trkpt lat="50.416661" lon="3.912286"><time>2026-05-02T17:26:05Z</time></trkpt>
<trkpt lat="50.417003" lon="3.911535"><time>2026-05-02T17:36:05Z</time></trkpt>
</trkseg></trk>
<trk>
<name>hfmfmi9</name>
<cmt>r</cmt>
<desc>Frameries Sentier n°i9 </desc>
<link href="https://chemins.be/frameries/sentier/i9"/><trkseg>
<trkpt lat="50.417003" lon="3.911535"><time>2026-05-02T17:36:05Z</time></trkpt>
<trkpt lat="50.417888" lon="3.912531"><time>2026-05-02T17:46:05Z</time></trkpt>
<trkpt lat="50.418779" lon="3.913480"><time>2026-05-02T17:56:05Z</time></trkpt>
</trkseg>
</trk>
<trk>
<name>hfmfmL153</name>
<cmt>q</cmt>
<desc>Frameries Chemin n°L153 </desc>
<link href="https://chemins.be/frameries/chemin/L153"/><trkseg>
<trkpt lat="50.410965" lon="3.904645"><time>2026-05-02T17:26:05Z</time></trkpt>
<trkpt lat="50.412965" lon="3.902565"><time>2026-05-02T17:36:05Z</time></trkpt>
<trkpt lat="50.414755" lon="3.900814"><time>2026-05-02T17:46:05Z</time></trkpt>
<trkpt lat="50.416573" lon="3.898932"><time>2026-05-02T17:56:05Z</time></trkpt>
</trkseg></trk>
<trk>
<name>hfmfmL153</name>
<cmt>d</cmt>
<desc>Frameries Chemin n°L153 </desc>
<link href="https://chemins.be/frameries/chemin/L153"/><trkseg>
<trkpt lat="50.416573" lon="3.898932"><time>2026-05-02T17:56:05Z</time></trkpt>
<trkpt lat="50.419605" lon="3.895744"><time>2026-05-02T18:06:05Z</time></trkpt>
</trkseg>
</trk>
<trk>
<name>hfmfmL98C</name>
<cmt>s</cmt>
<desc>Frameries Chemin n°L98C Rue des Fours à Chaux / RAVeL L98 C</desc>
<link href="https://chemins.be/frameries/chemin/L98C"/><trkseg>
<trkpt lat="50.411685" lon="3.924885"><time>2026-05-02T17:26:05Z</time></trkpt>
<trkpt lat="50.412580" lon="3.922919"><time>2026-05-02T17:36:05Z</time></trkpt>
<trkpt lat="50.412451" lon="3.919404"><time>2026-05-02T17:46:05Z</time></trkpt>
</trkseg></trk>
<trk>
<name>hfmfmL98C</name>
<cmt>q</cmt>
<desc>Frameries Chemin n°L98C Rue des Fours à Chaux / RAVeL L98 C</desc>
<link href="https://chemins.be/frameries/chemin/L98C"/><trkseg>
<trkpt lat="50.412451" lon="3.919404"><time>2026-05-02T17:46:05Z</time></trkpt>
<trkpt lat="50.410975" lon="3.918175"><time>2026-05-02T17:56:05Z</time></trkpt>
<trkpt lat="50.410445" lon="3.918125"><time>2026-05-02T18:06:05Z</time></trkpt>
<trkpt lat="50.409125" lon="3.918955"><time>2026-05-02T18:16:05Z</time></trkpt>
<trkpt lat="50.408665" lon="3.919055"><time>2026-05-02T18:26:05Z</time></trkpt>
<trkpt lat="50.406045" lon="3.917095"><time>2026-05-02T18:36:05Z</time></trkpt>
</trkseg></trk>
<trk>
<name>hfmfmL98C</name>
<cmt>v</cmt>
<desc>Frameries Chemin n°L98C Rue des Fours à Chaux / RAVeL L98 C</desc>
<link href="https://chemins.be/frameries/chemin/L98C"/><trkseg>
<trkpt lat="50.406045" lon="3.917095"><time>2026-05-02T18:36:05Z</time></trkpt>
<trkpt lat="50.405495" lon="3.915555"><time>2026-05-02T18:46:05Z</time></trkpt>
<trkpt lat="50.406030" lon="3.908445"><time>2026-05-02T18:56:05Z</time></trkpt>
<trkpt lat="50.406531" lon="3.906743"><time>2026-05-02T19:06:05Z</time></trkpt>
<trkpt lat="50.407220" lon="3.906035"><time>2026-05-02T19:16:05Z</time></trkpt>
<trkpt lat="50.407666" lon="3.905806"><time>2026-05-02T19:26:05Z</time></trkpt>
<trkpt lat="50.408655" lon="3.905435"><time>2026-05-02T19:36:05Z</time></trkpt>
<trkpt lat="50.410261" lon="3.905122"><time>2026-05-02T19:46:05Z</time></trkpt>
<trkpt lat="50.410995" lon="3.904865"><time>2026-05-02T19:56:05Z</time></trkpt>
<trkpt lat="50.417105" lon="3.902054"><time>2026-05-02T20:06:05Z</time></trkpt>
<trkpt lat="50.422435" lon="3.898014"><time>2026-05-02T20:16:05Z</time></trkpt>
</trkseg>
</trk>
<trk>
<name>hfmfmLi10</name>
<cmt>s</cmt>
<desc>Frameries Chemin n°Li10 </desc>
<link href="https://chemins.be/frameries/chemin/Li10"/><trkseg>
<trkpt lat="50.409482" lon="3.883595"><time>2026-05-02T17:26:05Z</time></trkpt>
<trkpt lat="50.409117" lon="3.886138"><time>2026-05-02T17:36:05Z</time></trkpt>
<trkpt lat="50.407749" lon="3.887635"><time>2026-05-02T17:46:05Z</time></trkpt>
<trkpt lat="50.407197" lon="3.888777"><time>2026-05-02T17:56:05Z</time></trkpt>
<trkpt lat="50.405942" lon="3.892665"><time>2026-05-02T18:06:05Z</time></trkpt>
</trkseg></trk>
<trk>
<name>hfmfmLi10</name>
<cmt>r</cmt>
<desc>Frameries Chemin n°Li10 </desc>
<link href="https://chemins.be/frameries/chemin/Li10"/><trkseg>
<trkpt lat="50.405942" lon="3.892665"><time>2026-05-02T18:06:05Z</time></trkpt>
<trkpt lat="50.404791" lon="3.895979"><time>2026-05-02T18:16:05Z</time></trkpt>
</trkseg></trk>
<trk>
<name>hfmfmLi10</name>
<cmt>q</cmt>
<desc>Frameries Chemin n°Li10 </desc>
<link href="https://chemins.be/frameries/chemin/Li10"/><trkseg>
<trkpt lat="50.404791" lon="3.895979"><time>2026-05-02T18:16:05Z</time></trkpt>
<trkpt lat="50.403971" lon="3.897797"><time>2026-05-02T18:26:05Z</time></trkpt>
</trkseg></trk>
<trk>
<name>hfmfmLi10</name>
<cmt>s</cmt>
<desc>Frameries Chemin n°Li10 </desc>
<link href="https://chemins.be/frameries/chemin/Li10"/><trkseg>
<trkpt lat="50.403971" lon="3.897797"><time>2026-05-02T18:26:05Z</time></trkpt>
<trkpt lat="50.403596" lon="3.898507"><time>2026-05-02T18:36:05Z</time></trkpt>
</trkseg></trk>
<trk>
<name>hfmfmLi10</name>
<cmt>v</cmt>
<desc>Frameries Chemin n°Li10 </desc>
<link href="https://chemins.be/frameries/chemin/Li10"/><trkseg>
<trkpt lat="50.403596" lon="3.898507"><time>2026-05-02T18:36:05Z</time></trkpt>
<trkpt lat="50.401330" lon="3.900916"><time>2026-05-02T18:46:05Z</time></trkpt>
<trkpt lat="50.400786" lon="3.902122"><time>2026-05-02T18:56:05Z</time></trkpt>
<trkpt lat="50.399673" lon="3.903652"><time>2026-05-02T19:06:05Z</time></trkpt>
<trkpt lat="50.397036" lon="3.905685"><time>2026-05-02T19:16:05Z</time></trkpt>
<trkpt lat="50.396719" lon="3.906157"><time>2026-05-02T19:26:05Z</time></trkpt>
<trkpt lat="50.396434" lon="3.906603"><time>2026-05-02T19:36:05Z</time></trkpt>
<trkpt lat="50.396144" lon="3.907058"><time>2026-05-02T19:46:05Z</time></trkpt>
<trkpt lat="50.395774" lon="3.907527"><time>2026-05-02T19:56:05Z</time></trkpt>
</trkseg></trk>
<trk>
<name>hfmfmLi10</name>
<cmt>q</cmt>
<desc>Frameries Chemin n°Li10 </desc>
<link href="https://chemins.be/frameries/chemin/Li10"/><trkseg>
<trkpt lat="50.395774" lon="3.907527"><time>2026-05-02T19:56:05Z</time></trkpt>
<trkpt lat="50.394378" lon="3.908156"><time>2026-05-02T20:06:05Z</time></trkpt>
</trkseg>
</trk>
<trk>
<name>hfmlb1</name>
<cmt>s</cmt>
<desc>La Bouverie Chemin n°1 </desc>
<link href="https://chemins.be/labouverie/chemin/1"/><trkseg>
<trkpt lat="50.409742" lon="3.882476"><time>2026-05-02T17:26:05Z</time></trkpt>
<trkpt lat="50.411082" lon="3.884718"><time>2026-05-02T17:36:05Z</time></trkpt>
</trkseg>
</trk>
<trk>
<name>hfmlb13</name>
<cmt>q</cmt>
<desc>La Bouverie Sentier n°13 </desc>
<link href="https://chemins.be/labouverie/sentier/13"/><trkseg>
<trkpt lat="50.412035" lon="3.872508"><time>2026-05-02T17:26:05Z</time></trkpt>
<trkpt lat="50.412527" lon="3.872969"><time>2026-05-02T17:36:05Z</time></trkpt>
<trkpt lat="50.413471" lon="3.872905"><time>2026-05-02T17:46:05Z</time></trkpt>
<trkpt lat="50.414264" lon="3.873184"><time>2026-05-02T17:56:05Z</time></trkpt>
</trkseg></trk>
<trk>
<name>hfmlb13</name>
<cmt>v</cmt>
<desc>La Bouverie Sentier n°13 </desc>
<link href="https://chemins.be/labouverie/sentier/13"/><trkseg>
<trkpt lat="50.414264" lon="3.873184"><time>2026-05-02T17:56:05Z</time></trkpt>
<trkpt lat="50.414785" lon="3.873853"><time>2026-05-02T18:06:05Z</time></trkpt>
<trkpt lat="50.414755" lon="3.874143"><time>2026-05-02T18:16:05Z</time></trkpt>
<trkpt lat="50.415455" lon="3.874443"><time>2026-05-02T18:26:05Z</time></trkpt>
<trkpt lat="50.415325" lon="3.875203"><time>2026-05-02T18:36:05Z</time></trkpt>
<trkpt lat="50.415545" lon="3.875273"><time>2026-05-02T18:46:05Z</time></trkpt>
<trkpt lat="50.417145" lon="3.878834"><time>2026-05-02T18:56:05Z</time></trkpt>
<trkpt lat="50.417705" lon="3.879494"><time>2026-05-02T19:06:05Z</time></trkpt>
</trkseg></trk>
<trk>
<name>hfmlb13</name>
<cmt>d</cmt>
<desc>La Bouverie Sentier n°13 </desc>
<link href="https://chemins.be/labouverie/sentier/13"/><trkseg>
<trkpt lat="50.417705" lon="3.879494"><time>2026-05-02T19:06:05Z</time></trkpt>
<trkpt lat="50.417705" lon="3.879494"><time>2026-05-02T19:16:05Z</time></trkpt>
<trkpt lat="50.417705" lon="3.879494"><time>2026-05-02T19:26:05Z</time></trkpt>
<trkpt lat="50.418425" lon="3.880384"><time>2026-05-02T19:36:05Z</time></trkpt>
<trkpt lat="50.419555" lon="3.881054"><time>2026-05-02T19:46:05Z</time></trkpt>
<trkpt lat="50.420175" lon="3.883044"><time>2026-05-02T19:56:05Z</time></trkpt>
</trkseg></trk>
<trk>
<name>hfmlb13</name>
<cmt>v</cmt>
<desc>La Bouverie Sentier n°13 </desc>
<link href="https://chemins.be/labouverie/sentier/13"/><trkseg>
<trkpt lat="50.420175" lon="3.883044"><time>2026-05-02T19:56:05Z</time></trkpt>
<trkpt lat="50.420175" lon="3.883044"><time>2026-05-02T20:06:05Z</time></trkpt>
<trkpt lat="50.420365" lon="3.883624"><time>2026-05-02T20:16:05Z</time></trkpt>
</trkseg>
</trk>
<trk>
<name>hfmlb20</name>
<cmt>r</cmt>
<desc>La Bouverie Chemin n°20 Rue du Ruisseau</desc>
<link href="https://chemins.be/labouverie/chemin/20"/><trkseg>
<trkpt lat="50.401377" lon="3.871674"><time>2026-05-02T17:26:05Z</time></trkpt>
<trkpt lat="50.401418" lon="3.870661"><time>2026-05-02T17:36:05Z</time></trkpt>
<trkpt lat="50.401505" lon="3.869985"><time>2026-05-02T17:46:05Z</time></trkpt>
<trkpt lat="50.401549" lon="3.869745"><time>2026-05-02T17:56:05Z</time></trkpt>
<trkpt lat="50.401593" lon="3.869618"><time>2026-05-02T18:06:05Z</time></trkpt>
</trkseg>
</trk>
<trk>
<name>hfmlb23</name>
<cmt>r</cmt>
<desc>La Bouverie Chemin n°23 Rue de la femme pendue / Rue Jean Baptiste Descamps</desc>
<link href="https://chemins.be/labouverie/chemin/23"/><trkseg>
<trkpt lat="50.398185" lon="3.888713"><time>2026-05-02T17:26:05Z</time></trkpt>
<trkpt lat="50.397580" lon="3.888128"><time>2026-05-02T17:36:05Z</time></trkpt>
<trkpt lat="50.396949" lon="3.887656"><time>2026-05-02T17:46:05Z</time></trkpt>
</trkseg></trk>
<trk>
<name>hfmlb23</name>
<cmt>v</cmt>
<desc>La Bouverie Chemin n°23 Rue de la femme pendue / Rue Jean Baptiste Descamps</desc>
<link href="https://chemins.be/labouverie/chemin/23"/><trkseg>
<trkpt lat="50.396949" lon="3.887656"><time>2026-05-02T17:46:05Z</time></trkpt>
<trkpt lat="50.395813" lon="3.886838"><time>2026-05-02T17:56:05Z</time></trkpt>
</trkseg>
</trk>
<trk>
<name>hfmlb29</name>
<cmt>v</cmt>
<desc>La Bouverie Chemin n°29 </desc>
<link href="https://chemins.be/labouverie/chemin/29"/><trkseg>
<trkpt lat="50.403820" lon="3.873718"><time>2026-05-02T17:26:05Z</time></trkpt>
<trkpt lat="50.404049" lon="3.873450"><time>2026-05-02T17:36:05Z</time></trkpt>
<trkpt lat="50.404191" lon="3.873506"><time>2026-05-02T17:46:05Z</time></trkpt>
<trkpt lat="50.404319" lon="3.873439"><time>2026-05-02T17:56:05Z</time></trkpt>
</trkseg>
</trk>
<trk>
<name>hfmlb30</name>
<cmt>v</cmt>
<desc>La Bouverie Chemin n°30 Champré</desc>
<link href="https://chemins.be/labouverie/chemin/30"/><trkseg>
<trkpt lat="50.396673" lon="3.879281"><time>2026-05-02T17:26:05Z</time></trkpt>
<trkpt lat="50.396444" lon="3.878601"><time>2026-05-02T17:36:05Z</time></trkpt>
<trkpt lat="50.396255" lon="3.878307"><time>2026-05-02T17:46:05Z</time></trkpt>
<trkpt lat="50.396043" lon="3.878275"><time>2026-05-02T17:56:05Z</time></trkpt>
</trkseg>
</trk>
<trk>
<name>hfmlb31</name>
<cmt>q</cmt>
<desc>La Bouverie Chemin n°31 </desc>
<link href="https://chemins.be/labouverie/chemin/31"/><trkseg>
<trkpt lat="50.396688" lon="3.879283"><time>2026-05-02T17:26:05Z</time></trkpt>
<trkpt lat="50.397045" lon="3.879613"><time>2026-05-02T17:36:05Z</time></trkpt>
<trkpt lat="50.397240" lon="3.879854"><time>2026-05-02T17:46:05Z</time></trkpt>
</trkseg>
</trk>
<trk>
<name>hfmlb32</name>
<cmt>q</cmt>
<desc>La Bouverie Chemin n°32 </desc>
<link href="https://chemins.be/labouverie/chemin/32"/><trkseg>
<trkpt lat="50.398336" lon="3.869268"><time>2026-05-02T17:26:05Z</time></trkpt>
<trkpt lat="50.398468" lon="3.869093"><time>2026-05-02T17:36:05Z</time></trkpt>
<trkpt lat="50.399457" lon="3.869643"><time>2026-05-02T17:46:05Z</time></trkpt>
</trkseg>
</trk>
<trk>
<name>hfmlb34</name>
<cmt>q</cmt>
<desc>La Bouverie Chemin n°34 </desc>
<link href="https://chemins.be/labouverie/chemin/34"/><trkseg>
<trkpt lat="50.400736" lon="3.888232"><time>2026-05-02T17:26:05Z</time></trkpt>
<trkpt lat="50.399639" lon="3.887341"><time>2026-05-02T17:36:05Z</time></trkpt>
</trkseg></trk>
<trk>
<name>hfmlb34</name>
<cmt>r</cmt>
<desc>La Bouverie Chemin n°34 </desc>
<link href="https://chemins.be/labouverie/chemin/34"/><trkseg>
<trkpt lat="50.399639" lon="3.887341"><time>2026-05-02T17:36:05Z</time></trkpt>
<trkpt lat="50.398902" lon="3.886708"><time>2026-05-02T17:46:05Z</time></trkpt>
</trkseg></trk>
<trk>
<name>hfmlb34</name>
<cmt>v</cmt>
<desc>La Bouverie Chemin n°34 </desc>
<link href="https://chemins.be/labouverie/chemin/34"/><trkseg>
<trkpt lat="50.398902" lon="3.886708"><time>2026-05-02T17:46:05Z</time></trkpt>
<trkpt lat="50.398242" lon="3.886133"><time>2026-05-02T17:56:05Z</time></trkpt>
</trkseg></trk>
<trk>
<name>hfmlb34</name>
<cmt>d</cmt>
<desc>La Bouverie Chemin n°34 </desc>
<link href="https://chemins.be/labouverie/chemin/34"/><trkseg>
<trkpt lat="50.398242" lon="3.886133"><time>2026-05-02T17:56:05Z</time></trkpt>
<trkpt lat="50.397740" lon="3.886096"><time>2026-05-02T18:06:05Z</time></trkpt>
</trkseg></trk>
<trk>
<name>hfmlb34</name>
<cmt>v</cmt>
<desc>La Bouverie Chemin n°34 </desc>
<link href="https://chemins.be/labouverie/chemin/34"/><trkseg>
<trkpt lat="50.397740" lon="3.886096"><time>2026-05-02T18:06:05Z</time></trkpt>
<trkpt lat="50.396662" lon="3.884362"><time>2026-05-02T18:16:05Z</time></trkpt>
<trkpt lat="50.394342" lon="3.882688"><time>2026-05-02T18:26:05Z</time></trkpt>
</trkseg>
</trk>
<trk>
<name>hfmlb35</name>
<cmt>r</cmt>
<desc>La Bouverie Chemin n°35 Rue Jules Cousin</desc>
<link href="https://chemins.be/labouverie/chemin/35"/><trkseg>
<trkpt lat="50.396416" lon="3.880341"><time>2026-05-02T17:26:05Z</time></trkpt>
<trkpt lat="50.395538" lon="3.881423"><time>2026-05-02T17:36:05Z</time></trkpt>
</trkseg></trk>
<trk>
<name>hfmlb35</name>
<cmt>d</cmt>
<desc>La Bouverie Chemin n°35 Rue Jules Cousin</desc>
<link href="https://chemins.be/labouverie/chemin/35"/><trkseg>
<trkpt lat="50.395538" lon="3.881423"><time>2026-05-02T17:36:05Z</time></trkpt>
<trkpt lat="50.394865" lon="3.883066"><time>2026-05-02T17:46:05Z</time></trkpt>
</trkseg>
</trk>
<trk>
<name>hfmlb36</name>
<cmt>r</cmt>
<desc>La Bouverie Sentier n°36 Terre à Cailloux</desc>
<link href="https://chemins.be/labouverie/sentier/36"/><trkseg>
<trkpt lat="50.400492" lon="3.884800"><time>2026-05-02T17:26:05Z</time></trkpt>
<trkpt lat="50.400499" lon="3.884828"><time>2026-05-02T17:36:05Z</time></trkpt>
<trkpt lat="50.400164" lon="3.884142"><time>2026-05-02T17:46:05Z</time></trkpt>
<trkpt lat="50.399879" lon="3.883169"><time>2026-05-02T17:56:05Z</time></trkpt>
</trkseg></trk>
<trk>
<name>hfmlb36</name>
<cmt>v</cmt>
<desc>La Bouverie Sentier n°36 Terre à Cailloux</desc>
<link href="https://chemins.be/labouverie/sentier/36"/><trkseg>
<trkpt lat="50.399879" lon="3.883169"><time>2026-05-02T17:56:05Z</time></trkpt>
<trkpt lat="50.399755" lon="3.882689"><time>2026-05-02T18:06:05Z</time></trkpt>
<trkpt lat="50.399548" lon="3.882082"><time>2026-05-02T18:16:05Z</time></trkpt>
<trkpt lat="50.398839" lon="3.880617"><time>2026-05-02T18:26:05Z</time></trkpt>
</trkseg></trk>
<trk>
<name>hfmlb36</name>
<cmt>r</cmt>
<desc>La Bouverie Sentier n°36 Terre à Cailloux</desc>
<link href="https://chemins.be/labouverie/sentier/36"/><trkseg>
<trkpt lat="50.398839" lon="3.880617"><time>2026-05-02T18:26:05Z</time></trkpt>
<trkpt lat="50.397643" lon="3.878273"><time>2026-05-02T18:36:05Z</time></trkpt>
</trkseg>
</trk>
<trk>
<name>hfmlb37</name>
<cmt>v</cmt>
<desc>La Bouverie Sentier n°37 </desc>
<link href="https://chemins.be/labouverie/sentier/37"/><trkseg>
<trkpt lat="50.402526" lon="3.886095"><time>2026-05-02T17:26:05Z</time></trkpt>
<trkpt lat="50.403316" lon="3.883709"><time>2026-05-02T17:36:05Z</time></trkpt>
</trkseg>
</trk>
<trk>
<name>hfmlb38</name>
<cmt>v</cmt>
<desc>La Bouverie Sentier n°38 Rue des Champs / Rue de la Chaux de Fonds</desc>
<link href="https://chemins.be/labouverie/sentier/38"/><trkseg>
<trkpt lat="50.403698" lon="3.882749"><time>2026-05-02T17:26:05Z</time></trkpt>
<trkpt lat="50.403637" lon="3.882989"><time>2026-05-02T17:36:05Z</time></trkpt>
<trkpt lat="50.403809" lon="3.883282"><time>2026-05-02T17:46:05Z</time></trkpt>
<trkpt lat="50.403614" lon="3.884058"><time>2026-05-02T17:56:05Z</time></trkpt>
</trkseg></trk>
<trk>
<name>hfmlb38</name>
<cmt>r</cmt>
<desc>La Bouverie Sentier n°38 Rue des Champs / Rue de la Chaux de Fonds</desc>
<link href="https://chemins.be/labouverie/sentier/38"/><trkseg>
<trkpt lat="50.403614" lon="3.884058"><time>2026-05-02T17:56:05Z</time></trkpt>
<trkpt lat="50.404078" lon="3.885474"><time>2026-05-02T18:06:05Z</time></trkpt>
</trkseg></trk>
<trk>
<name>hfmlb38</name>
<cmt>d</cmt>
<desc>La Bouverie Sentier n°38 Rue des Champs / Rue de la Chaux de Fonds</desc>
<link href="https://chemins.be/labouverie/sentier/38"/><trkseg>
<trkpt lat="50.404078" lon="3.885474"><time>2026-05-02T18:06:05Z</time></trkpt>
<trkpt lat="50.404793" lon="3.886592"><time>2026-05-02T18:16:05Z</time></trkpt>
</trkseg></trk>
<trk>
<name>hfmlb38</name>
<cmt>r</cmt>
<desc>La Bouverie Sentier n°38 Rue des Champs / Rue de la Chaux de Fonds</desc>
<link href="https://chemins.be/labouverie/sentier/38"/><trkseg>
<trkpt lat="50.404793" lon="3.886592"><time>2026-05-02T18:16:05Z</time></trkpt>
<trkpt lat="50.405163" lon="3.886827"><time>2026-05-02T18:26:05Z</time></trkpt>
</trkseg></trk>
<trk>
<name>hfmlb38</name>
<cmt>v</cmt>
<desc>La Bouverie Sentier n°38 Rue des Champs / Rue de la Chaux de Fonds</desc>
<link href="https://chemins.be/labouverie/sentier/38"/><trkseg>
<trkpt lat="50.405163" lon="3.886827"><time>2026-05-02T18:26:05Z</time></trkpt>
<trkpt lat="50.404968" lon="3.887575"><time>2026-05-02T18:36:05Z</time></trkpt>
<trkpt lat="50.405113" lon="3.887714"><time>2026-05-02T18:46:05Z</time></trkpt>
<trkpt lat="50.405288" lon="3.888908"><time>2026-05-02T18:56:05Z</time></trkpt>
</trkseg>
</trk>
<trk>
<name>hfmlb38bis</name>
<cmt>q</cmt>
<desc>La Bouverie Sentier n°38bis </desc>
<link href="https://chemins.be/labouverie/sentier/38bis"/><trkseg>
<trkpt lat="50.404517" lon="3.887270"><time>2026-05-02T17:26:05Z</time></trkpt>
<trkpt lat="50.404959" lon="3.887547"><time>2026-05-02T17:36:05Z</time></trkpt>
</trkseg>
</trk>
<trk>
<name>hfmlb4</name>
<cmt>r</cmt>
<desc>La Bouverie Chemin n°4 Rue Triangulaire</desc>
<link href="https://chemins.be/labouverie/chemin/4"/><trkseg>
<trkpt lat="50.407715" lon="3.877558"><time>2026-05-02T17:26:05Z</time></trkpt>
<trkpt lat="50.407439" lon="3.878206"><time>2026-05-02T17:36:05Z</time></trkpt>
<trkpt lat="50.407540" lon="3.878665"><time>2026-05-02T17:46:05Z</time></trkpt>
</trkseg>
</trk>
<trk>
<name>hfmlb41</name>
<cmt>v</cmt>
<desc>La Bouverie Sentier n°41 </desc>
<link href="https://chemins.be/labouverie/sentier/41"/><trkseg>
<trkpt lat="50.407189" lon="3.883346"><time>2026-05-02T17:26:05Z</time></trkpt>
<trkpt lat="50.408017" lon="3.883422"><time>2026-05-02T17:36:05Z</time></trkpt>
<trkpt lat="50.408719" lon="3.883724"><time>2026-05-02T17:46:05Z</time></trkpt>
</trkseg>
</trk>
<trk>
<name>hfmlb42</name>
<cmt>r</cmt>
<desc>La Bouverie Sentier n°42 Rue Notre-Dame de Grâces</desc>
<link href="https://chemins.be/labouverie/sentier/42"/><trkseg>
<trkpt lat="50.406903" lon="3.881189"><time>2026-05-02T17:26:05Z</time></trkpt>
<trkpt lat="50.407493" lon="3.885886"><time>2026-05-02T17:36:05Z</time></trkpt>
<trkpt lat="50.407985" lon="3.887173"><time>2026-05-02T17:46:05Z</time></trkpt>
</trkseg>
</trk>
<trk>
<name>hfmlb43</name>
<cmt>v</cmt>
<desc>La Bouverie Sentier n°43 Rue de l'Avenir / Rue des Quatre Bonniers</desc>
<link href="https://chemins.be/labouverie/sentier/43"/><trkseg>
<trkpt lat="50.402579" lon="3.885967"><time>2026-05-02T17:26:05Z</time></trkpt>
<trkpt lat="50.403315" lon="3.885665"><time>2026-05-02T17:36:05Z</time></trkpt>
</trkseg></trk>
<trk>
<name>hfmlb43</name>
<cmt>r</cmt>
<desc>La Bouverie Sentier n°43 Rue de l'Avenir / Rue des Quatre Bonniers</desc>
<link href="https://chemins.be/labouverie/sentier/43"/><trkseg>
<trkpt lat="50.403315" lon="3.885665"><time>2026-05-02T17:36:05Z</time></trkpt>
<trkpt lat="50.404295" lon="3.885467"><time>2026-05-02T17:46:05Z</time></trkpt>
</trkseg></trk>
<trk>
<name>hfmlb43</name>
<cmt>b</cmt>
<desc>La Bouverie Sentier n°43 Rue de l'Avenir / Rue des Quatre Bonniers</desc>
<link href="https://chemins.be/labouverie/sentier/43"/><trkseg>
<trkpt lat="50.404295" lon="3.885467"><time>2026-05-02T17:46:05Z</time></trkpt>
<trkpt lat="50.405004" lon="3.885254"><time>2026-05-02T17:56:05Z</time></trkpt>
</trkseg></trk>
<trk>
<name>hfmlb43</name>
<cmt>r</cmt>
<desc>La Bouverie Sentier n°43 Rue de l'Avenir / Rue des Quatre Bonniers</desc>
<link href="https://chemins.be/labouverie/sentier/43"/><trkseg>
<trkpt lat="50.405004" lon="3.885254"><time>2026-05-02T17:56:05Z</time></trkpt>
<trkpt lat="50.405942" lon="3.883851"><time>2026-05-02T18:06:05Z</time></trkpt>
</trkseg>
</trk>
<trk>
<name>hfmlb44</name>
<cmt>r</cmt>
<desc>La Bouverie Sentier n°44 </desc>
<link href="https://chemins.be/labouverie/sentier/44"/><trkseg>
<trkpt lat="50.413379" lon="3.878202"><time>2026-05-02T17:26:05Z</time></trkpt>
<trkpt lat="50.413786" lon="3.878304"><time>2026-05-02T17:36:05Z</time></trkpt>
</trkseg></trk>
<trk>
<name>hfmlb44</name>
<cmt>d</cmt>
<desc>La Bouverie Sentier n°44 </desc>
<link href="https://chemins.be/labouverie/sentier/44"/><trkseg>
<trkpt lat="50.413786" lon="3.878304"><time>2026-05-02T17:36:05Z</time></trkpt>
<trkpt lat="50.417655" lon="3.879504"><time>2026-05-02T17:46:05Z</time></trkpt>
<trkpt lat="50.418315" lon="3.880324"><time>2026-05-02T17:56:05Z</time></trkpt>
<trkpt lat="50.419495" lon="3.880904"><time>2026-05-02T18:06:05Z</time></trkpt>
<trkpt lat="50.421135" lon="3.881294"><time>2026-05-02T18:16:05Z</time></trkpt>
</trkseg>
</trk>
<trk>
<name>hfmlb50</name>
<cmt>q</cmt>
<desc>La Bouverie Sentier n°50 </desc>
<link href="https://chemins.be/labouverie/sentier/50"/><trkseg>
<trkpt lat="50.410682" lon="3.884075"><time>2026-05-02T17:26:05Z</time></trkpt>
<trkpt lat="50.410870" lon="3.883018"><time>2026-05-02T17:36:05Z</time></trkpt>
<trkpt lat="50.410743" lon="3.879284"><time>2026-05-02T17:46:05Z</time></trkpt>
</trkseg>
</trk>
<trk>
<name>hfmlb8</name>
<cmt>s</cmt>
<desc>La Bouverie Chemin n°8 </desc>
<link href="https://chemins.be/labouverie/chemin/8"/><trkseg>
<trkpt lat="50.408846" lon="3.883388"><time>2026-05-02T17:26:05Z</time></trkpt>
<trkpt lat="50.411150" lon="3.884182"><time>2026-05-02T17:36:05Z</time></trkpt>
</trkseg>
</trk>
<trk>
<name>hfmlbi1</name>
<cmt>v</cmt>
<desc>La Bouverie Sentier n°i1 </desc>
<link href="https://chemins.be/labouverie/sentier/i1"/><trkseg>
<trkpt lat="50.411364" lon="3.881953"><time>2026-05-02T17:26:05Z</time></trkpt>
<trkpt lat="50.411913" lon="3.882158"><time>2026-05-02T17:36:05Z</time></trkpt>
<trkpt lat="50.412345" lon="3.882224"><time>2026-05-02T17:46:05Z</time></trkpt>
<trkpt lat="50.412660" lon="3.882277"><time>2026-05-02T17:56:05Z</time></trkpt>
<trkpt lat="50.412930" lon="3.882331"><time>2026-05-02T18:06:05Z</time></trkpt>
<trkpt lat="50.413317" lon="3.882369"><time>2026-05-02T18:16:05Z</time></trkpt>
<trkpt lat="50.414090" lon="3.882460"><time>2026-05-02T18:26:05Z</time></trkpt>
<trkpt lat="50.414486" lon="3.882554"><time>2026-05-02T18:36:05Z</time></trkpt>
<trkpt lat="50.414882" lon="3.882634"><time>2026-05-02T18:46:05Z</time></trkpt>
</trkseg>
</trk>
<trk>
<name>hfmlbi2</name>
<cmt>v</cmt>
<desc>La Bouverie Sentier n°i2 </desc>
<link href="https://chemins.be/labouverie/sentier/i2"/><trkseg>
<trkpt lat="50.406968" lon="3.887036"><time>2026-05-02T17:26:05Z</time></trkpt>
<trkpt lat="50.406672" lon="3.887980"><time>2026-05-02T17:36:05Z</time></trkpt>
</trkseg>
</trk>
<trk>
<name>hfmlbi3</name>
<cmt>v</cmt>
<desc>La Bouverie Chemin n°i3 Chemin du Tram</desc>
<link href="https://chemins.be/labouverie/chemin/i3"/><trkseg>
<trkpt lat="50.400717" lon="3.884378"><time>2026-05-02T17:26:05Z</time></trkpt>
<trkpt lat="50.400632" lon="3.883877"><time>2026-05-02T17:36:05Z</time></trkpt>
<trkpt lat="50.400540" lon="3.883661"><time>2026-05-02T17:46:05Z</time></trkpt>
</trkseg></trk>
<trk>
<name>hfmlbi3</name>
<cmt>q</cmt>
<desc>La Bouverie Chemin n°i3 Chemin du Tram</desc>
<link href="https://chemins.be/labouverie/chemin/i3"/><trkseg>
<trkpt lat="50.400540" lon="3.883661"><time>2026-05-02T17:46:05Z</time></trkpt>
<trkpt lat="50.399879" lon="3.883214"><time>2026-05-02T17:56:05Z</time></trkpt>
</trkseg></trk>
<trk>
<name>hfmlbi3</name>
<cmt>v</cmt>
<desc>La Bouverie Chemin n°i3 Chemin du Tram</desc>
<link href="https://chemins.be/labouverie/chemin/i3"/><trkseg>
<trkpt lat="50.399879" lon="3.883214"><time>2026-05-02T17:56:05Z</time></trkpt>
<trkpt lat="50.398132" lon="3.882034"><time>2026-05-02T18:06:05Z</time></trkpt>
<trkpt lat="50.397779" lon="3.881630"><time>2026-05-02T18:16:05Z</time></trkpt>
<trkpt lat="50.397482" lon="3.881095"><time>2026-05-02T18:26:05Z</time></trkpt>
<trkpt lat="50.397253" lon="3.879818"><time>2026-05-02T18:36:05Z</time></trkpt>
</trkseg></trk>
<trk>
<name>hfmlbi3</name>
<cmt>r</cmt>
<desc>La Bouverie Chemin n°i3 Chemin du Tram</desc>
<link href="https://chemins.be/labouverie/chemin/i3"/><trkseg>
<trkpt lat="50.397253" lon="3.879818"><time>2026-05-02T18:36:05Z</time></trkpt>
<trkpt lat="50.397044" lon="3.878375"><time>2026-05-02T18:46:05Z</time></trkpt>
</trkseg></trk>
<trk>
<name>hfmlbi3</name>
<cmt>q</cmt>
<desc>La Bouverie Chemin n°i3 Chemin du Tram</desc>
<link href="https://chemins.be/labouverie/chemin/i3"/><trkseg>
<trkpt lat="50.397044" lon="3.878375"><time>2026-05-02T18:46:05Z</time></trkpt>
<trkpt lat="50.396887" lon="3.877334"><time>2026-05-02T18:56:05Z</time></trkpt>
</trkseg>
</trk>
<trk>
<name>hfmlbLi10</name>
<cmt>s</cmt>
<desc>La Bouverie Chemin n°Li10 </desc>
<link href="https://chemins.be/labouverie/chemin/Li10"/><trkseg>
<trkpt lat="50.408770" lon="3.870069"><time>2026-05-02T17:26:05Z</time></trkpt>
<trkpt lat="50.409855" lon="3.870684"><time>2026-05-02T17:36:05Z</time></trkpt>
<trkpt lat="50.410205" lon="3.871043"><time>2026-05-02T17:46:05Z</time></trkpt>
</trkseg></trk>
<trk>
<name>hfmlbLi10</name>
<cmt>r</cmt>
<desc>La Bouverie Chemin n°Li10 </desc>
<link href="https://chemins.be/labouverie/chemin/Li10"/><trkseg>
<trkpt lat="50.410205" lon="3.871043"><time>2026-05-02T17:46:05Z</time></trkpt>
<trkpt lat="50.410895" lon="3.871749"><time>2026-05-02T17:56:05Z</time></trkpt>
<trkpt lat="50.411497" lon="3.872908"><time>2026-05-02T18:06:05Z</time></trkpt>
</trkseg></trk>
<trk>
<name>hfmlbLi10</name>
<cmt>s</cmt>
<desc>La Bouverie Chemin n°Li10 </desc>
<link href="https://chemins.be/labouverie/chemin/Li10"/><trkseg>
<trkpt lat="50.411497" lon="3.872908"><time>2026-05-02T18:06:05Z</time></trkpt>
<trkpt lat="50.411609" lon="3.874153"><time>2026-05-02T18:16:05Z</time></trkpt>
<trkpt lat="50.410515" lon="3.879558"><time>2026-05-02T18:26:05Z</time></trkpt>
<trkpt lat="50.410023" lon="3.881362"><time>2026-05-02T18:36:05Z</time></trkpt>
<trkpt lat="50.409547" lon="3.882842"><time>2026-05-02T18:46:05Z</time></trkpt>
<trkpt lat="50.409506" lon="3.883677"><time>2026-05-02T18:56:05Z</time></trkpt>
</trkseg>
</trk>
<trk>
<name>hfmnci1</name>
<cmt>v</cmt>
<desc>Noirchain Chemin n°i1 </desc>
<link href="https://chemins.be/noirchain/chemin/i1"/><trkseg>
<trkpt lat="50.403000" lon="3.933411"><time>2026-05-02T17:26:05Z</time></trkpt>
<trkpt lat="50.404038" lon="3.934031"><time>2026-05-02T17:36:05Z</time></trkpt>
<trkpt lat="50.408749" lon="3.936791"><time>2026-05-02T17:46:05Z</time></trkpt>
</trkseg>
</trk>
<trk>
<name>hfmnci2</name>
<cmt>v</cmt>
<desc>Noirchain Chemin n°i2 </desc>
<link href="https://chemins.be/noirchain/chemin/i2"/><trkseg>
<trkpt lat="50.402928" lon="3.933355"><time>2026-05-02T17:26:05Z</time></trkpt>
<trkpt lat="50.404130" lon="3.930207"><time>2026-05-02T17:36:05Z</time></trkpt>
</trkseg>
</trk>
<trk>
<name>hfmnci3</name>
<cmt>v</cmt>
<desc>Noirchain Chemin n°i3 </desc>
<link href="https://chemins.be/noirchain/chemin/i3"/><trkseg>
<trkpt lat="50.402605" lon="3.939076"><time>2026-05-02T17:26:05Z</time></trkpt>
<trkpt lat="50.402890" lon="3.942560"><time>2026-05-02T17:36:05Z</time></trkpt>
<trkpt lat="50.403115" lon="3.944376"><time>2026-05-02T17:46:05Z</time></trkpt>
<trkpt lat="50.403065" lon="3.947211"><time>2026-05-02T17:56:05Z</time></trkpt>
</trkseg>
</trk>
<trk>
<name>hfmnci4</name>
<cmt>v</cmt>
<desc>Noirchain Chemin n°i4 </desc>
<link href="https://chemins.be/noirchain/chemin/i4"/><trkseg>
<trkpt lat="50.408264" lon="3.939913"><time>2026-05-02T17:26:05Z</time></trkpt>
<trkpt lat="50.403925" lon="3.938586"><time>2026-05-02T17:36:05Z</time></trkpt>
<trkpt lat="50.402665" lon="3.938976"><time>2026-05-02T17:46:05Z</time></trkpt>
<trkpt lat="50.402665" lon="3.938976"><time>2026-05-02T17:56:05Z</time></trkpt>
<trkpt lat="50.402655" lon="3.938966"><time>2026-05-02T18:06:05Z</time></trkpt>
<trkpt lat="50.398707" lon="3.938735"><time>2026-05-02T18:16:05Z</time></trkpt>
<trkpt lat="50.392994" lon="3.937486"><time>2026-05-02T18:26:05Z</time></trkpt>
</trkseg>
</trk>
<trk>
<name>hfmnci5</name>
<cmt>q</cmt>
<desc>Noirchain Chemin n°i5 </desc>
<link href="https://chemins.be/noirchain/chemin/i5"/><trkseg>
<trkpt lat="50.399122" lon="3.929492"><time>2026-05-02T17:26:05Z</time></trkpt>
<trkpt lat="50.397240" lon="3.926351"><time>2026-05-02T17:36:05Z</time></trkpt>
<trkpt lat="50.396485" lon="3.924840"><time>2026-05-02T17:46:05Z</time></trkpt>
</trkseg>
</trk>
<trk>
<name>hfmnci6</name>
<cmt>v</cmt>
<desc>Noirchain Chemin n°i6 </desc>
<link href="https://chemins.be/noirchain/chemin/i6"/><trkseg>
<trkpt lat="50.409010" lon="3.936421"><time>2026-05-02T17:26:05Z</time></trkpt>
<trkpt lat="50.406577" lon="3.932934"><time>2026-05-02T17:36:05Z</time></trkpt>
<trkpt lat="50.404143" lon="3.930359"><time>2026-05-02T17:46:05Z</time></trkpt>
</trkseg>
</trk>
<trk>
<name>hfmnci7</name>
<cmt>v</cmt>
<desc>Noirchain Chemin n°i7 </desc>
<link href="https://chemins.be/noirchain/chemin/i7"/><trkseg>
<trkpt lat="50.403280" lon="3.929157"><time>2026-05-02T17:26:05Z</time></trkpt>
<trkpt lat="50.404402" lon="3.928471"><time>2026-05-02T17:36:05Z</time></trkpt>
<trkpt lat="50.405783" lon="3.928213"><time>2026-05-02T17:46:05Z</time></trkpt>
<trkpt lat="50.408860" lon="3.926067"><time>2026-05-02T17:56:05Z</time></trkpt>
<trkpt lat="50.410692" lon="3.926132"><time>2026-05-02T18:06:05Z</time></trkpt>
<trkpt lat="50.410996" lon="3.925965"><time>2026-05-02T18:16:05Z</time></trkpt>
<trkpt lat="50.411390" lon="3.925145"><time>2026-05-02T18:26:05Z</time></trkpt>
</trkseg>
</trk>
<trk>
<name>hfmnci8</name>
<cmt>v</cmt>
<desc>Noirchain Chemin n°i8 </desc>
<link href="https://chemins.be/noirchain/chemin/i8"/><trkseg>
<trkpt lat="50.406743" lon="3.933067"><time>2026-05-02T17:26:05Z</time></trkpt>
<trkpt lat="50.407799" lon="3.933419"><time>2026-05-02T17:36:05Z</time></trkpt>
<trkpt lat="50.408966" lon="3.933385"><time>2026-05-02T17:46:05Z</time></trkpt>
<trkpt lat="50.409364" lon="3.933462"><time>2026-05-02T17:56:05Z</time></trkpt>
</trkseg>
</trk>
<trk>
<name>hfmsb1</name>
<cmt>r</cmt>
<desc>Sars-la-Bruyère Chemin n°1 Chaussée Brunehaut</desc>
<link href="https://chemins.be/sarslabruyere/chemin/1"/><trkseg>
<trkpt lat="50.379139" lon="3.898733"><time>2026-05-02T17:26:05Z</time></trkpt>
<trkpt lat="50.376382" lon="3.895062"><time>2026-05-02T17:36:05Z</time></trkpt>
</trkseg></trk>
<trk>
<name>hfmsb1</name>
<cmt>v</cmt>
<desc>Sars-la-Bruyère Chemin n°1 Chaussée Brunehaut</desc>
<link href="https://chemins.be/sarslabruyere/chemin/1"/><trkseg>
<trkpt lat="50.376382" lon="3.895062"><time>2026-05-02T17:36:05Z</time></trkpt>
<trkpt lat="50.375134" lon="3.893374"><time>2026-05-02T17:46:05Z</time></trkpt>
<trkpt lat="50.369747" lon="3.886092"><time>2026-05-02T17:56:05Z</time></trkpt>
<trkpt lat="50.367467" lon="3.883023"><time>2026-05-02T18:06:05Z</time></trkpt>
</trkseg></trk>
<trk>
<name>hfmsb1</name>
<cmt>r</cmt>
<desc>Sars-la-Bruyère Chemin n°1 Chaussée Brunehaut</desc>
<link href="https://chemins.be/sarslabruyere/chemin/1"/><trkseg>
<trkpt lat="50.367467" lon="3.883023"><time>2026-05-02T18:06:05Z</time></trkpt>
<trkpt lat="50.367331" lon="3.882637"><time>2026-05-02T18:16:05Z</time></trkpt>
<trkpt lat="50.366653" lon="3.880931"><time>2026-05-02T18:26:05Z</time></trkpt>
<trkpt lat="50.364566" lon="3.878131"><time>2026-05-02T18:36:05Z</time></trkpt>
<trkpt lat="50.360238" lon="3.870917"><time>2026-05-02T18:46:05Z</time></trkpt>
</trkseg></trk>
<trk>
<name>hfmsb1</name>
<cmt>v</cmt>
<desc>Sars-la-Bruyère Chemin n°1 Chaussée Brunehaut</desc>
<link href="https://chemins.be/sarslabruyere/chemin/1"/><trkseg>
<trkpt lat="50.360238" lon="3.870917"><time>2026-05-02T18:46:05Z</time></trkpt>
<trkpt lat="50.358413" lon="3.867874"><time>2026-05-02T18:56:05Z</time></trkpt>
<trkpt lat="50.357098" lon="3.865299"><time>2026-05-02T19:06:05Z</time></trkpt>
</trkseg>
</trk>
<trk>
<name>hfmsb11</name>
<cmt>v</cmt>
<desc>Sars-la-Bruyère Chemin n°11 </desc>
<link href="https://chemins.be/sarslabruyere/chemin/11"/><trkseg>
<trkpt lat="50.355850" lon="3.844878"><time>2026-05-02T17:26:05Z</time></trkpt>
<trkpt lat="50.355987" lon="3.845024"><time>2026-05-02T17:36:05Z</time></trkpt>
<trkpt lat="50.356932" lon="3.845380"><time>2026-05-02T17:46:05Z</time></trkpt>
<trkpt lat="50.357016" lon="3.845349"><time>2026-05-02T17:56:05Z</time></trkpt>
</trkseg>
</trk>
<trk>
<name>hfmsb12</name>
<cmt>v</cmt>
<desc>Sars-la-Bruyère Chemin n°12 </desc>
<link href="https://chemins.be/sarslabruyere/chemin/12"/><trkseg>
<trkpt lat="50.375624" lon="3.879762"><time>2026-05-02T17:26:05Z</time></trkpt>
<trkpt lat="50.378007" lon="3.879201"><time>2026-05-02T17:36:05Z</time></trkpt>
<trkpt lat="50.381227" lon="3.879731"><time>2026-05-02T17:46:05Z</time></trkpt>
<trkpt lat="50.382686" lon="3.878099"><time>2026-05-02T17:56:05Z</time></trkpt>
</trkseg>
</trk>
<trk>
<name>hfmsb13</name>
<cmt>q</cmt>
<desc>Sars-la-Bruyère Sentier n°13 Rue des Écoles / Place de Sars-la-Bruyère</desc>
<link href="https://chemins.be/sarslabruyere/sentier/13"/><trkseg>
<trkpt lat="50.385568" lon="3.885545"><time>2026-05-02T17:26:05Z</time></trkpt>
<trkpt lat="50.383689" lon="3.884042"><time>2026-05-02T17:36:05Z</time></trkpt>
<trkpt lat="50.382320" lon="3.884028"><time>2026-05-02T17:46:05Z</time></trkpt>
<trkpt lat="50.381399" lon="3.884257"><time>2026-05-02T17:56:05Z</time></trkpt>
</trkseg></trk>
<trk>
<name>hfmsb13</name>
<cmt>v</cmt>
<desc>Sars-la-Bruyère Sentier n°13 Rue des Écoles / Place de Sars-la-Bruyère</desc>
<link href="https://chemins.be/sarslabruyere/sentier/13"/><trkseg>
<trkpt lat="50.381399" lon="3.884257"><time>2026-05-02T17:56:05Z</time></trkpt>
<trkpt lat="50.374466" lon="3.878622"><time>2026-05-02T18:06:05Z</time></trkpt>
<trkpt lat="50.374208" lon="3.878536"><time>2026-05-02T18:16:05Z</time></trkpt>
<trkpt lat="50.374113" lon="3.878643"><time>2026-05-02T18:26:05Z</time></trkpt>
</trkseg></trk>
<trk>
<name>hfmsb13</name>
<cmt>q</cmt>
<desc>Sars-la-Bruyère Sentier n°13 Rue des Écoles / Place de Sars-la-Bruyère</desc>
<link href="https://chemins.be/sarslabruyere/sentier/13"/><trkseg>
<trkpt lat="50.374113" lon="3.878643"><time>2026-05-02T18:26:05Z</time></trkpt>
<trkpt lat="50.373647" lon="3.878404"><time>2026-05-02T18:36:05Z</time></trkpt>
<trkpt lat="50.372990" lon="3.877568"><time>2026-05-02T18:46:05Z</time></trkpt>
<trkpt lat="50.372497" lon="3.877417"><time>2026-05-02T18:56:05Z</time></trkpt>
<trkpt lat="50.371998" lon="3.877889"><time>2026-05-02T19:06:05Z</time></trkpt>
</trkseg></trk>
<trk>
<name>hfmsb13</name>
<cmt>r</cmt>
<desc>Sars-la-Bruyère Sentier n°13 Rue des Écoles / Place de Sars-la-Bruyère</desc>
<link href="https://chemins.be/sarslabruyere/sentier/13"/><trkseg>
<trkpt lat="50.371998" lon="3.877889"><time>2026-05-02T19:06:05Z</time></trkpt>
<trkpt lat="50.371796" lon="3.878439"><time>2026-05-02T19:16:05Z</time></trkpt>
<trkpt lat="50.371129" lon="3.878080"><time>2026-05-02T19:26:05Z</time></trkpt>
</trkseg></trk>
<trk>
<name>hfmsb13</name>
<cmt>v</cmt>
<desc>Sars-la-Bruyère Sentier n°13 Rue des Écoles / Place de Sars-la-Bruyère</desc>
<link href="https://chemins.be/sarslabruyere/sentier/13"/><trkseg>
<trkpt lat="50.371129" lon="3.878080"><time>2026-05-02T19:26:05Z</time></trkpt>
<trkpt lat="50.370589" lon="3.877043"><time>2026-05-02T19:36:05Z</time></trkpt>
<trkpt lat="50.369846" lon="3.875546"><time>2026-05-02T19:46:05Z</time></trkpt>
<trkpt lat="50.369001" lon="3.874059"><time>2026-05-02T19:56:05Z</time></trkpt>
<trkpt lat="50.367998" lon="3.872276"><time>2026-05-02T20:06:05Z</time></trkpt>
<trkpt lat="50.366593" lon="3.867596"><time>2026-05-02T20:16:05Z</time></trkpt>
<trkpt lat="50.365745" lon="3.866874"><time>2026-05-02T20:26:05Z</time></trkpt>
<trkpt lat="50.364660" lon="3.865494"><time>2026-05-02T20:36:05Z</time></trkpt>
</trkseg></trk>
<trk>
<name>hfmsb13</name>
<cmt>r</cmt>
<desc>Sars-la-Bruyère Sentier n°13 Rue des Écoles / Place de Sars-la-Bruyère</desc>
<link href="https://chemins.be/sarslabruyere/sentier/13"/><trkseg>
<trkpt lat="50.364660" lon="3.865494"><time>2026-05-02T20:36:05Z</time></trkpt>
<trkpt lat="50.363931" lon="3.865263"><time>2026-05-02T20:46:05Z</time></trkpt>
</trkseg></trk>
<trk>
<name>hfmsb13</name>
<cmt>v</cmt>
<desc>Sars-la-Bruyère Sentier n°13 Rue des Écoles / Place de Sars-la-Bruyère</desc>
<link href="https://chemins.be/sarslabruyere/sentier/13"/><trkseg>
<trkpt lat="50.363931" lon="3.865263"><time>2026-05-02T20:46:05Z</time></trkpt>
<trkpt lat="50.363443" lon="3.864846"><time>2026-05-02T20:56:05Z</time></trkpt>
<trkpt lat="50.362808" lon="3.865542"><time>2026-05-02T21:06:05Z</time></trkpt>
<trkpt lat="50.362342" lon="3.866383"><time>2026-05-02T21:16:05Z</time></trkpt>
</trkseg></trk>
<trk>
<name>hfmsb13</name>
<cmt>q</cmt>
<desc>Sars-la-Bruyère Sentier n°13 Rue des Écoles / Place de Sars-la-Bruyère</desc>
<link href="https://chemins.be/sarslabruyere/sentier/13"/><trkseg>
<trkpt lat="50.362342" lon="3.866383"><time>2026-05-02T21:16:05Z</time></trkpt>
<trkpt lat="50.361877" lon="3.866125"><time>2026-05-02T21:26:05Z</time></trkpt>
<trkpt lat="50.357866" lon="3.863969"><time>2026-05-02T21:36:05Z</time></trkpt>
<trkpt lat="50.356004" lon="3.859420"><time>2026-05-02T21:46:05Z</time></trkpt>
<trkpt lat="50.351212" lon="3.857542"><time>2026-05-02T21:56:05Z</time></trkpt>
<trkpt lat="50.350034" lon="3.857349"><time>2026-05-02T22:06:05Z</time></trkpt>
<trkpt lat="50.349788" lon="3.857682"><time>2026-05-02T22:16:05Z</time></trkpt>
<trkpt lat="50.348733" lon="3.856351"><time>2026-05-02T22:26:05Z</time></trkpt>
</trkseg>
</trk>
<trk>
<name>hfmsb14</name>
<cmt>q</cmt>
<desc>Sars-la-Bruyère Sentier n°14 </desc>
<link href="https://chemins.be/sarslabruyere/sentier/14"/><trkseg>
<trkpt lat="50.372032" lon="3.895508"><time>2026-05-02T17:26:05Z</time></trkpt>
<trkpt lat="50.374340" lon="3.892332"><time>2026-05-02T17:36:05Z</time></trkpt>
</trkseg>
</trk>
<trk>
<name>hfmsb15</name>
<cmt>v</cmt>
<desc>Sars-la-Bruyère Sentier n°15 </desc>
<link href="https://chemins.be/sarslabruyere/sentier/15"/><trkseg>
<trkpt lat="50.373777" lon="3.878176"><time>2026-05-02T17:26:05Z</time></trkpt>
<trkpt lat="50.372554" lon="3.880326"><time>2026-05-02T17:36:05Z</time></trkpt>
</trkseg>
</trk>
<trk>
<name>hfmsb16</name>
<cmt>r</cmt>
<desc>Sars-la-Bruyère Sentier n°16 Rue Vicomte Edward d'Hendecourt</desc>
<link href="https://chemins.be/sarslabruyere/sentier/16"/><trkseg>
<trkpt lat="50.371888" lon="3.878316"><time>2026-05-02T17:26:05Z</time></trkpt>
<trkpt lat="50.372727" lon="3.879362"><time>2026-05-02T17:36:05Z</time></trkpt>
</trkseg></trk>
<trk>
<name>hfmsb16</name>
<cmt>v</cmt>
<desc>Sars-la-Bruyère Sentier n°16 Rue Vicomte Edward d'Hendecourt</desc>
<link href="https://chemins.be/sarslabruyere/sentier/16"/><trkseg>
<trkpt lat="50.372727" lon="3.879362"><time>2026-05-02T17:36:05Z</time></trkpt>
<trkpt lat="50.373010" lon="3.879518"><time>2026-05-02T17:46:05Z</time></trkpt>
</trkseg>
</trk>
<trk>
<name>hfmsb17</name>
<cmt>q</cmt>
<desc>Sars-la-Bruyère Sentier n°17 </desc>
<link href="https://chemins.be/sarslabruyere/sentier/17"/><trkseg>
<trkpt lat="50.372795" lon="3.876581"><time>2026-05-02T17:26:05Z</time></trkpt>
<trkpt lat="50.372463" lon="3.877380"><time>2026-05-02T17:36:05Z</time></trkpt>
</trkseg>
</trk>
<trk>
<name>hfmsb18</name>
<cmt>q</cmt>
<desc>Sars-la-Bruyère Sentier n°18 </desc>
<link href="https://chemins.be/sarslabruyere/sentier/18"/><trkseg>
<trkpt lat="50.372713" lon="3.876457"><time>2026-05-02T17:26:05Z</time></trkpt>
<trkpt lat="50.372952" lon="3.877444"><time>2026-05-02T17:36:05Z</time></trkpt>
</trkseg>
</trk>
<trk>
<name>hfmsb19</name>
<cmt>q</cmt>
<desc>Sars-la-Bruyère Sentier n°19 </desc>
<link href="https://chemins.be/sarslabruyere/sentier/19"/><trkseg>
<trkpt lat="50.386872" lon="3.891563"><time>2026-05-02T17:26:05Z</time></trkpt>
<trkpt lat="50.383807" lon="3.895168"><time>2026-05-02T17:36:05Z</time></trkpt>
<trkpt lat="50.381686" lon="3.896413"><time>2026-05-02T17:46:05Z</time></trkpt>
</trkseg>
</trk>
<trk>
<name>hfmsb2</name>
<cmt>r</cmt>
<desc>Sars-la-Bruyère Chemin n°2 Rue du Bois</desc>
<link href="https://chemins.be/sarslabruyere/chemin/2"/><trkseg>
<trkpt lat="50.360316" lon="3.870878"><time>2026-05-02T17:26:05Z</time></trkpt>
<trkpt lat="50.362164" lon="3.866737"><time>2026-05-02T17:36:05Z</time></trkpt>
</trkseg></trk>
<trk>
<name>hfmsb2</name>
<cmt>v</cmt>
<desc>Sars-la-Bruyère Chemin n°2 Rue du Bois</desc>
<link href="https://chemins.be/sarslabruyere/chemin/2"/><trkseg>
<trkpt lat="50.362164" lon="3.866737"><time>2026-05-02T17:36:05Z</time></trkpt>
<trkpt lat="50.362328" lon="3.866415"><time>2026-05-02T17:46:05Z</time></trkpt>
</trkseg>
</trk>
<trk>
<name>hfmsb20</name>
<cmt>q</cmt>
<desc>Sars-la-Bruyère Sentier n°20 </desc>
<link href="https://chemins.be/sarslabruyere/sentier/20"/><trkseg>
<trkpt lat="50.374448" lon="3.878630"><time>2026-05-02T17:26:05Z</time></trkpt>
<trkpt lat="50.374078" lon="3.877407"><time>2026-05-02T17:36:05Z</time></trkpt>
<trkpt lat="50.372716" lon="3.874746"><time>2026-05-02T17:46:05Z</time></trkpt>
<trkpt lat="50.372015" lon="3.874580"><time>2026-05-02T17:56:05Z</time></trkpt>
<trkpt lat="50.371608" lon="3.874247"><time>2026-05-02T18:06:05Z</time></trkpt>
<trkpt lat="50.371317" lon="3.873711"><time>2026-05-02T18:16:05Z</time></trkpt>
<trkpt lat="50.371348" lon="3.873566"><time>2026-05-02T18:26:05Z</time></trkpt>
<trkpt lat="50.371142" lon="3.873306"><time>2026-05-02T18:36:05Z</time></trkpt>
<trkpt lat="50.371197" lon="3.873206"><time>2026-05-02T18:46:05Z</time></trkpt>
</trkseg>
</trk>
<trk>
<name>hfmsb21</name>
<cmt>v</cmt>
<desc>Sars-la-Bruyère Sentier n°21 Sentier de la Motte</desc>
<link href="https://chemins.be/sarslabruyere/sentier/21"/><trkseg>
<trkpt lat="50.373798" lon="3.871919"><time>2026-05-02T17:26:05Z</time></trkpt>
<trkpt lat="50.374797" lon="3.871704"><time>2026-05-02T17:36:05Z</time></trkpt>
<trkpt lat="50.374838" lon="3.871652"><time>2026-05-02T17:46:05Z</time></trkpt>
<trkpt lat="50.376345" lon="3.869706"><time>2026-05-02T17:56:05Z</time></trkpt>
</trkseg></trk>
<trk>
<name>hfmsb21</name>
<cmt>d</cmt>
<desc>Sars-la-Bruyère Sentier n°21 Sentier de la Motte</desc>
<link href="https://chemins.be/sarslabruyere/sentier/21"/><trkseg>
<trkpt lat="50.376345" lon="3.869706"><time>2026-05-02T17:56:05Z</time></trkpt>
<trkpt lat="50.377194" lon="3.868589"><time>2026-05-02T18:06:05Z</time></trkpt>
</trkseg></trk>
<trk>
<name>hfmsb21</name>
<cmt>q</cmt>
<desc>Sars-la-Bruyère Sentier n°21 Sentier de la Motte</desc>
<link href="https://chemins.be/sarslabruyere/sentier/21"/><trkseg>
<trkpt lat="50.377194" lon="3.868589"><time>2026-05-02T18:06:05Z</time></trkpt>
<trkpt lat="50.379491" lon="3.864344"><time>2026-05-02T18:16:05Z</time></trkpt>
</trkseg></trk>
<trk>
<name>hfmsb21</name>
<cmt>v</cmt>
<desc>Sars-la-Bruyère Sentier n°21 Sentier de la Motte</desc>
<link href="https://chemins.be/sarslabruyere/sentier/21"/><trkseg>
<trkpt lat="50.379491" lon="3.864344"><time>2026-05-02T18:16:05Z</time></trkpt>
<trkpt lat="50.381642" lon="3.861054"><time>2026-05-02T18:26:05Z</time></trkpt>
</trkseg>
</trk>
<trk>
<name>hfmsb22</name>
<cmt>v</cmt>
<desc>Sars-la-Bruyère Sentier n°22 Rue Haute</desc>
<link href="https://chemins.be/sarslabruyere/sentier/22"/><trkseg>
<trkpt lat="50.363435" lon="3.864833"><time>2026-05-02T17:26:05Z</time></trkpt>
<trkpt lat="50.364192" lon="3.862759"><time>2026-05-02T17:36:05Z</time></trkpt>
<trkpt lat="50.364806" lon="3.861254"><time>2026-05-02T17:46:05Z</time></trkpt>
<trkpt lat="50.366425" lon="3.860687"><time>2026-05-02T17:56:05Z</time></trkpt>
<trkpt lat="50.368363" lon="3.860049"><time>2026-05-02T18:06:05Z</time></trkpt>
<trkpt lat="50.368542" lon="3.860923"><time>2026-05-02T18:16:05Z</time></trkpt>
<trkpt lat="50.369140" lon="3.860704"><time>2026-05-02T18:26:05Z</time></trkpt>
<trkpt lat="50.369518" lon="3.859908"><time>2026-05-02T18:36:05Z</time></trkpt>
<trkpt lat="50.370752" lon="3.860080"><time>2026-05-02T18:46:05Z</time></trkpt>
<trkpt lat="50.371429" lon="3.860658"><time>2026-05-02T18:56:05Z</time></trkpt>
<trkpt lat="50.372683" lon="3.860127"><time>2026-05-02T19:06:05Z</time></trkpt>
<trkpt lat="50.373101" lon="3.859737"><time>2026-05-02T19:16:05Z</time></trkpt>
</trkseg></trk>
<trk>
<name>hfmsb22</name>
<cmt>d</cmt>
<desc>Sars-la-Bruyère Sentier n°22 Rue Haute</desc>
<link href="https://chemins.be/sarslabruyere/sentier/22"/><trkseg>
<trkpt lat="50.373101" lon="3.859737"><time>2026-05-02T19:16:05Z</time></trkpt>
<trkpt lat="50.374574" lon="3.859971"><time>2026-05-02T19:26:05Z</time></trkpt>
<trkpt lat="50.376578" lon="3.860567"><time>2026-05-02T19:36:05Z</time></trkpt>
</trkseg></trk>
<trk>
<name>hfmsb22</name>
<cmt>v</cmt>
<desc>Sars-la-Bruyère Sentier n°22 Rue Haute</desc>
<link href="https://chemins.be/sarslabruyere/sentier/22"/><trkseg>
<trkpt lat="50.376578" lon="3.860567"><time>2026-05-02T19:36:05Z</time></trkpt>
<trkpt lat="50.377319" lon="3.861192"><time>2026-05-02T19:46:05Z</time></trkpt>
</trkseg></trk>
<trk>
<name>hfmsb22</name>
<cmt>d</cmt>
<desc>Sars-la-Bruyère Sentier n°22 Rue Haute</desc>
<link href="https://chemins.be/sarslabruyere/sentier/22"/><trkseg>
<trkpt lat="50.377319" lon="3.861192"><time>2026-05-02T19:46:05Z</time></trkpt>
<trkpt lat="50.381619" lon="3.861082"><time>2026-05-02T19:56:05Z</time></trkpt>
</trkseg></trk>
<trk>
<name>hfmsb22</name>
<cmt>v</cmt>
<desc>Sars-la-Bruyère Sentier n°22 Rue Haute</desc>
<link href="https://chemins.be/sarslabruyere/sentier/22"/><trkseg>
<trkpt lat="50.381619" lon="3.861082"><time>2026-05-02T19:56:05Z</time></trkpt>
<trkpt lat="50.382922" lon="3.861137"><time>2026-05-02T20:06:05Z</time></trkpt>
</trkseg>
</trk>
<trk>
<name>hfmsb23</name>
<cmt>q</cmt>
<desc>Sars-la-Bruyère Sentier n°23 </desc>
<link href="https://chemins.be/sarslabruyere/sentier/23"/><trkseg>
<trkpt lat="50.376604" lon="3.860613"><time>2026-05-02T17:26:05Z</time></trkpt>
<trkpt lat="50.377815" lon="3.857051"><time>2026-05-02T17:36:05Z</time></trkpt>
</trkseg>
</trk>
<trk>
<name>hfmsb24</name>
<cmt>q</cmt>
<desc>Sars-la-Bruyère Sentier n°24 </desc>
<link href="https://chemins.be/sarslabruyere/sentier/24"/><trkseg>
<trkpt lat="50.373982" lon="3.870025"><time>2026-05-02T17:26:05Z</time></trkpt>
<trkpt lat="50.374886" lon="3.871677"><time>2026-05-02T17:36:05Z</time></trkpt>
</trkseg>
</trk>
<trk>
<name>hfmsb25</name>
<cmt>q</cmt>
<desc>Sars-la-Bruyère Sentier n°25 Rue de Taisnières</desc>
<link href="https://chemins.be/sarslabruyere/sentier/25"/><trkseg>
<trkpt lat="50.371184" lon="3.877976"><time>2026-05-02T17:26:05Z</time></trkpt>
<trkpt lat="50.371092" lon="3.877716"><time>2026-05-02T17:36:05Z</time></trkpt>
<trkpt lat="50.371125" lon="3.876548"><time>2026-05-02T17:46:05Z</time></trkpt>
<trkpt lat="50.370824" lon="3.875277"><time>2026-05-02T17:56:05Z</time></trkpt>
<trkpt lat="50.370821" lon="3.874875"><time>2026-05-02T18:06:05Z</time></trkpt>
<trkpt lat="50.370705" lon="3.872412"><time>2026-05-02T18:16:05Z</time></trkpt>
</trkseg></trk>
<trk>
<name>hfmsb25</name>
<cmt>r</cmt>
<desc>Sars-la-Bruyère Sentier n°25 Rue de Taisnières</desc>
<link href="https://chemins.be/sarslabruyere/sentier/25"/><trkseg>
<trkpt lat="50.370705" lon="3.872412"><time>2026-05-02T18:16:05Z</time></trkpt>
<trkpt lat="50.369884" lon="3.870910"><time>2026-05-02T18:26:05Z</time></trkpt>
</trkseg></trk>
<trk>
<name>hfmsb25</name>
<cmt>q</cmt>
<desc>Sars-la-Bruyère Sentier n°25 Rue de Taisnières</desc>
<link href="https://chemins.be/sarslabruyere/sentier/25"/><trkseg>
<trkpt lat="50.369884" lon="3.870910"><time>2026-05-02T18:26:05Z</time></trkpt>
<trkpt lat="50.371485" lon="3.869194"><time>2026-05-02T18:36:05Z</time></trkpt>
<trkpt lat="50.371745" lon="3.868142"><time>2026-05-02T18:46:05Z</time></trkpt>
<trkpt lat="50.371636" lon="3.866383"><time>2026-05-02T18:56:05Z</time></trkpt>
<trkpt lat="50.372156" lon="3.863593"><time>2026-05-02T19:06:05Z</time></trkpt>
<trkpt lat="50.372197" lon="3.860375"><time>2026-05-02T19:16:05Z</time></trkpt>
<trkpt lat="50.371704" lon="3.860503"><time>2026-05-02T19:26:05Z</time></trkpt>
<trkpt lat="50.370582" lon="3.853873"><time>2026-05-02T19:36:05Z</time></trkpt>
</trkseg>
</trk>
<trk>
<name>hfmsb26</name>
<cmt>v</cmt>
<desc>Sars-la-Bruyère Sentier n°26 Allée des Sars</desc>
<link href="https://chemins.be/sarslabruyere/sentier/26"/><trkseg>
<trkpt lat="50.368367" lon="3.859973"><time>2026-05-02T17:26:05Z</time></trkpt>
<trkpt lat="50.368519" lon="3.859746"><time>2026-05-02T17:36:05Z</time></trkpt>
<trkpt lat="50.372039" lon="3.852736"><time>2026-05-02T17:46:05Z</time></trkpt>
</trkseg>
</trk>
<trk>
<name>hfmsb27</name>
<cmt>v</cmt>
<desc>Sars-la-Bruyère Sentier n°27 </desc>
<link href="https://chemins.be/sarslabruyere/sentier/27"/><trkseg>
<trkpt lat="50.368501" lon="3.860943"><time>2026-05-02T17:26:05Z</time></trkpt>
<trkpt lat="50.368344" lon="3.859999"><time>2026-05-02T17:36:05Z</time></trkpt>
<trkpt lat="50.366895" lon="3.856684"><time>2026-05-02T17:46:05Z</time></trkpt>
<trkpt lat="50.364765" lon="3.851663"><time>2026-05-02T17:56:05Z</time></trkpt>
</trkseg>
</trk>
<trk>
<name>hfmsb28</name>
<cmt>q</cmt>
<desc>Sars-la-Bruyère Sentier n°28 Allée de Blaugies</desc>
<link href="https://chemins.be/sarslabruyere/sentier/28"/><trkseg>
<trkpt lat="50.365669" lon="3.861115"><time>2026-05-02T17:26:05Z</time></trkpt>
<trkpt lat="50.360405" lon="3.849458"><time>2026-05-02T17:36:05Z</time></trkpt>
<trkpt lat="50.360350" lon="3.848675"><time>2026-05-02T17:46:05Z</time></trkpt>
</trkseg>
</trk>
<trk>
<name>hfmsb29</name>
<cmt>v</cmt>
<desc>Sars-la-Bruyère Sentier n°29 </desc>
<link href="https://chemins.be/sarslabruyere/sentier/29"/><trkseg>
<trkpt lat="50.364217" lon="3.862778"><time>2026-05-02T17:26:05Z</time></trkpt>
<trkpt lat="50.359016" lon="3.851234"><time>2026-05-02T17:36:05Z</time></trkpt>
</trkseg></trk>
<trk>
<name>hfmsb29</name>
<cmt>q</cmt>
<desc>Sars-la-Bruyère Sentier n°29 </desc>
<link href="https://chemins.be/sarslabruyere/sentier/29"/><trkseg>
<trkpt lat="50.359016" lon="3.851234"><time>2026-05-02T17:36:05Z</time></trkpt>
<trkpt lat="50.357468" lon="3.847098"><time>2026-05-02T17:46:05Z</time></trkpt>
<trkpt lat="50.356969" lon="3.845327"><time>2026-05-02T17:56:05Z</time></trkpt>
</trkseg>
</trk>
<trk>
<name>hfmsb30</name>
<cmt>b</cmt>
<desc>Sars-la-Bruyère Sentier n°30 </desc>
<link href="https://chemins.be/sarslabruyere/sentier/30"/><trkseg>
<trkpt lat="50.363977" lon="3.879318"><time>2026-05-02T17:26:05Z</time></trkpt>
<trkpt lat="50.361511" lon="3.876121"><time>2026-05-02T17:36:05Z</time></trkpt>
<trkpt lat="50.357373" lon="3.870524"><time>2026-05-02T17:46:05Z</time></trkpt>
<trkpt lat="50.353704" lon="3.864902"><time>2026-05-02T17:56:05Z</time></trkpt>
</trkseg>
</trk>
<trk>
<name>hfmsb31</name>
<cmt>d</cmt>
<desc>Sars-la-Bruyère Sentier n°31 </desc>
<link href="https://chemins.be/sarslabruyere/sentier/31"/><trkseg>
<trkpt lat="50.361897" lon="3.875679"><time>2026-05-02T17:26:05Z</time></trkpt>
<trkpt lat="50.361438" lon="3.876109"><time>2026-05-02T17:36:05Z</time></trkpt>
</trkseg>
</trk>
<trk>
<name>hfmsb32</name>
<cmt>d</cmt>
<desc>Sars-la-Bruyère Sentier n°32 </desc>
<link href="https://chemins.be/sarslabruyere/sentier/32"/><trkseg>
<trkpt lat="50.363465" lon="3.876174"><time>2026-05-02T17:26:05Z</time></trkpt>
<trkpt lat="50.364875" lon="3.875952"><time>2026-05-02T17:36:05Z</time></trkpt>
</trkseg></trk>
<trk>
<name>hfmsb32</name>
<cmt>v</cmt>
<desc>Sars-la-Bruyère Sentier n°32 </desc>
<link href="https://chemins.be/sarslabruyere/sentier/32"/><trkseg>
<trkpt lat="50.364875" lon="3.875952"><time>2026-05-02T17:36:05Z</time></trkpt>
<trkpt lat="50.365274" lon="3.875686"><time>2026-05-02T17:46:05Z</time></trkpt>
<trkpt lat="50.365769" lon="3.875450"><time>2026-05-02T17:56:05Z</time></trkpt>
<trkpt lat="50.368268" lon="3.874446"><time>2026-05-02T18:06:05Z</time></trkpt>
<trkpt lat="50.369031" lon="3.874255"><time>2026-05-02T18:16:05Z</time></trkpt>
</trkseg>
</trk>
<trk>
<name>hfmsb33</name>
<cmt>v</cmt>
<desc>Sars-la-Bruyère Sentier n°33 Rue de Le Haye</desc>
<link href="https://chemins.be/sarslabruyere/sentier/33"/><trkseg>
<trkpt lat="50.372455" lon="3.876011"><time>2026-05-02T17:26:05Z</time></trkpt>
<trkpt lat="50.372085" lon="3.875607"><time>2026-05-02T17:36:05Z</time></trkpt>
<trkpt lat="50.371571" lon="3.875289"><time>2026-05-02T17:46:05Z</time></trkpt>
<trkpt lat="50.370832" lon="3.874889"><time>2026-05-02T17:56:05Z</time></trkpt>
<trkpt lat="50.370571" lon="3.874751"><time>2026-05-02T18:06:05Z</time></trkpt>
<trkpt lat="50.369183" lon="3.874091"><time>2026-05-02T18:16:05Z</time></trkpt>
<trkpt lat="50.368958" lon="3.874065"><time>2026-05-02T18:26:05Z</time></trkpt>
</trkseg></trk>
<trk>
<name>hfmsb33</name>
<cmt>s</cmt>
<desc>Sars-la-Bruyère Sentier n°33 Rue de Le Haye</desc>
<link href="https://chemins.be/sarslabruyere/sentier/33"/><trkseg>
<trkpt lat="50.368958" lon="3.874065"><time>2026-05-02T18:26:05Z</time></trkpt>
<trkpt lat="50.366813" lon="3.872809"><time>2026-05-02T18:36:05Z</time></trkpt>
</trkseg>
</trk>
<trk>
<name>hfmsb34</name>
<cmt>v</cmt>
<desc>Sars-la-Bruyère Sentier n°34 </desc>
<link href="https://chemins.be/sarslabruyere/sentier/34"/><trkseg>
<trkpt lat="50.365690" lon="3.872947"><time>2026-05-02T17:26:05Z</time></trkpt>
<trkpt lat="50.365771" lon="3.875181"><time>2026-05-02T17:36:05Z</time></trkpt>
<trkpt lat="50.365592" lon="3.875296"><time>2026-05-02T17:46:05Z</time></trkpt>
<trkpt lat="50.365616" lon="3.875521"><time>2026-05-02T17:56:05Z</time></trkpt>
<trkpt lat="50.365774" lon="3.875451"><time>2026-05-02T18:06:05Z</time></trkpt>
</trkseg></trk>
<trk>
<name>hfmsb34</name>
<cmt>d</cmt>
<desc>Sars-la-Bruyère Sentier n°34 </desc>
<link href="https://chemins.be/sarslabruyere/sentier/34"/><trkseg>
<trkpt lat="50.365774" lon="3.875451"><time>2026-05-02T18:06:05Z</time></trkpt>
<trkpt lat="50.365784" lon="3.875441"><time>2026-05-02T18:16:05Z</time></trkpt>
<trkpt lat="50.366318" lon="3.878383"><time>2026-05-02T18:26:05Z</time></trkpt>
<trkpt lat="50.366297" lon="3.880303"><time>2026-05-02T18:36:05Z</time></trkpt>
</trkseg>
</trk>
<trk>
<name>hfmsb35</name>
<cmt>v</cmt>
<desc>Sars-la-Bruyère Sentier n°35 </desc>
<link href="https://chemins.be/sarslabruyere/sentier/35"/><trkseg>
<trkpt lat="50.371184" lon="3.878115"><time>2026-05-02T17:26:05Z</time></trkpt>
<trkpt lat="50.370862" lon="3.878383"><time>2026-05-02T17:36:05Z</time></trkpt>
<trkpt lat="50.370218" lon="3.878622"><time>2026-05-02T17:46:05Z</time></trkpt>
</trkseg></trk>
<trk>
<name>hfmsb35</name>
<cmt>d</cmt>
<desc>Sars-la-Bruyère Sentier n°35 </desc>
<link href="https://chemins.be/sarslabruyere/sentier/35"/><trkseg>
<trkpt lat="50.370218" lon="3.878622"><time>2026-05-02T17:46:05Z</time></trkpt>
<trkpt lat="50.367016" lon="3.881752"><time>2026-05-02T17:56:05Z</time></trkpt>
</trkseg></trk>
<trk>
<name>hfmsb35</name>
<cmt>r</cmt>
<desc>Sars-la-Bruyère Sentier n°35 </desc>
<link href="https://chemins.be/sarslabruyere/sentier/35"/><trkseg>
<trkpt lat="50.367016" lon="3.881752"><time>2026-05-02T17:56:05Z</time></trkpt>
<trkpt lat="50.367262" lon="3.882455"><time>2026-05-02T18:06:05Z</time></trkpt>
</trkseg></trk>
<trk>
<name>hfmsb35</name>
<cmt>q</cmt>
<desc>Sars-la-Bruyère Sentier n°35 </desc>
<link href="https://chemins.be/sarslabruyere/sentier/35"/><trkseg>
<trkpt lat="50.367262" lon="3.882455"><time>2026-05-02T18:06:05Z</time></trkpt>
<trkpt lat="50.366968" lon="3.882744"><time>2026-05-02T18:16:05Z</time></trkpt>
</trkseg>
</trk>
<trk>
<name>hfmsb36</name>
<cmt>q</cmt>
<desc>Sars-la-Bruyère Sentier n°36 </desc>
<link href="https://chemins.be/sarslabruyere/sentier/36"/><trkseg>
<trkpt lat="50.371084" lon="3.876441"><time>2026-05-02T17:26:05Z</time></trkpt>
<trkpt lat="50.371570" lon="3.875288"><time>2026-05-02T17:36:05Z</time></trkpt>
<trkpt lat="50.371584" lon="3.874167"><time>2026-05-02T17:46:05Z</time></trkpt>
</trkseg>
</trk>
<trk>
<name>hfmsb37</name>
<cmt>q</cmt>
<desc>Sars-la-Bruyère Sentier n°37 </desc>
<link href="https://chemins.be/sarslabruyere/sentier/37"/><trkseg>
<trkpt lat="50.372336" lon="3.876479"><time>2026-05-02T17:26:05Z</time></trkpt>
<trkpt lat="50.371837" lon="3.876736"><time>2026-05-02T17:36:05Z</time></trkpt>
<trkpt lat="50.371224" lon="3.878008"><time>2026-05-02T17:46:05Z</time></trkpt>
</trkseg>
</trk>
<trk>
<name>hfmsb38</name>
<cmt>q</cmt>
<desc>Sars-la-Bruyère Sentier n°38 </desc>
<link href="https://chemins.be/sarslabruyere/sentier/38"/><trkseg>
<trkpt lat="50.372087" lon="3.875599"><time>2026-05-02T17:26:05Z</time></trkpt>
<trkpt lat="50.372015" lon="3.874569"><time>2026-05-02T17:36:05Z</time></trkpt>
</trkseg>
</trk>
<trk>
<name>hfmsb39</name>
<cmt>q</cmt>
<desc>Sars-la-Bruyère Sentier n°39 </desc>
<link href="https://chemins.be/sarslabruyere/sentier/39"/><trkseg>
<trkpt lat="50.372699" lon="3.874896"><time>2026-05-02T17:26:05Z</time></trkpt>
<trkpt lat="50.372285" lon="3.875293"><time>2026-05-02T17:36:05Z</time></trkpt>
<trkpt lat="50.372107" lon="3.875352"><time>2026-05-02T17:46:05Z</time></trkpt>
<trkpt lat="50.371775" lon="3.875390"><time>2026-05-02T17:56:05Z</time></trkpt>
</trkseg>
</trk>
<trk>
<name>hfmsb4</name>
<cmt>v</cmt>
<desc>Sars-la-Bruyère Chemin n°4 </desc>
<link href="https://chemins.be/sarslabruyere/chemin/4"/><trkseg>
<trkpt lat="50.383267" lon="3.884718"><time>2026-05-02T17:26:05Z</time></trkpt>
<trkpt lat="50.384348" lon="3.887100"><time>2026-05-02T17:36:05Z</time></trkpt>
<trkpt lat="50.385675" lon="3.888924"><time>2026-05-02T17:46:05Z</time></trkpt>
<trkpt lat="50.386729" lon="3.891349"><time>2026-05-02T17:56:05Z</time></trkpt>
</trkseg>
</trk>
<trk>
<name>hfmsb40</name>
<cmt>v</cmt>
<desc>Sars-la-Bruyère Sentier n°40 </desc>
<link href="https://chemins.be/sarslabruyere/sentier/40"/><trkseg>
<trkpt lat="50.371543" lon="3.879254"><time>2026-05-02T17:26:05Z</time></trkpt>
<trkpt lat="50.372554" lon="3.880424"><time>2026-05-02T17:36:05Z</time></trkpt>
<trkpt lat="50.373783" lon="3.881789"><time>2026-05-02T17:46:05Z</time></trkpt>
</trkseg>
</trk>
<trk>
<name>hfmsb5</name>
<cmt>v</cmt>
<desc>Sars-la-Bruyère Chemin n°5 Chemin de Sars à Genly</desc>
<link href="https://chemins.be/sarslabruyere/chemin/5"/><trkseg>
<trkpt lat="50.374246" lon="3.878593"><time>2026-05-02T17:26:05Z</time></trkpt>
<trkpt lat="50.373783" lon="3.881775"><time>2026-05-02T17:36:05Z</time></trkpt>
<trkpt lat="50.373584" lon="3.883661"><time>2026-05-02T17:46:05Z</time></trkpt>
<trkpt lat="50.373830" lon="3.884530"><time>2026-05-02T17:56:05Z</time></trkpt>
<trkpt lat="50.374529" lon="3.888347"><time>2026-05-02T18:06:05Z</time></trkpt>
<trkpt lat="50.375170" lon="3.893331"><time>2026-05-02T18:16:05Z</time></trkpt>
</trkseg>
</trk>
<trk>
<name>hfmsb6</name>
<cmt>v</cmt>
<desc>Sars-la-Bruyère Chemin n°6 Rue Haute</desc>
<link href="https://chemins.be/sarslabruyere/chemin/6"/><trkseg>
<trkpt lat="50.376533" lon="3.860532"><time>2026-05-02T17:26:05Z</time></trkpt>
<trkpt lat="50.377264" lon="3.861101"><time>2026-05-02T17:36:05Z</time></trkpt>
<trkpt lat="50.378017" lon="3.862822"><time>2026-05-02T17:46:05Z</time></trkpt>
<trkpt lat="50.379435" lon="3.864311"><time>2026-05-02T17:56:05Z</time></trkpt>
<trkpt lat="50.381363" lon="3.867300"><time>2026-05-02T18:06:05Z</time></trkpt>
</trkseg>
</trk>
<trk>
<name>hfmsb8</name>
<cmt>d</cmt>
<desc>Sars-la-Bruyère Chemin n°8 </desc>
<link href="https://chemins.be/sarslabruyere/chemin/8"/><trkseg>
<trkpt lat="50.362704" lon="3.875025"><time>2026-05-02T17:26:05Z</time></trkpt>
<trkpt lat="50.361910" lon="3.875658"><time>2026-05-02T17:36:05Z</time></trkpt>
</trkseg>
</trk>
<trk>
<name>hfmsbi1</name>
<cmt>v</cmt>
<desc>Sars-la-Bruyère Chemin n°i1 </desc>
<link href="https://chemins.be/sarslabruyere/chemin/i1"/><trkseg>
<trkpt lat="50.349133" lon="3.858834"><time>2026-05-02T17:26:05Z</time></trkpt>
<trkpt lat="50.351673" lon="3.854273"><time>2026-05-02T17:36:05Z</time></trkpt>
</trkseg></trk>
<trk>
<name>hfmsbi1</name>
<cmt>d</cmt>
<desc>Sars-la-Bruyère Chemin n°i1 </desc>
<link href="https://chemins.be/sarslabruyere/chemin/i1"/><trkseg>
<trkpt lat="50.351673" lon="3.854273"><time>2026-05-02T17:36:05Z</time></trkpt>
<trkpt lat="50.352163" lon="3.853573"><time>2026-05-02T17:46:05Z</time></trkpt>
<trkpt lat="50.352843" lon="3.852203"><time>2026-05-02T17:56:05Z</time></trkpt>
<trkpt lat="50.353183" lon="3.851513"><time>2026-05-02T18:06:05Z</time></trkpt>
<trkpt lat="50.353463" lon="3.850753"><time>2026-05-02T18:16:05Z</time></trkpt>
<trkpt lat="50.353712" lon="3.849265"><time>2026-05-02T18:26:05Z</time></trkpt>
</trkseg></trk>
<trk>
<name>hfmsbi1</name>
<cmt>v</cmt>
<desc>Sars-la-Bruyère Chemin n°i1 </desc>
<link href="https://chemins.be/sarslabruyere/chemin/i1"/><trkseg>
<trkpt lat="50.353712" lon="3.849265"><time>2026-05-02T18:26:05Z</time></trkpt>
<trkpt lat="50.354680" lon="3.844061"><time>2026-05-02T18:36:05Z</time></trkpt>
</trkseg>
</trk>
<trk>
<name>hfmsbi2</name>
<cmt>v</cmt>
<desc>Sars-la-Bruyère Sentier n°i2 Rue du Progrès</desc>
<link href="https://chemins.be/sarslabruyere/sentier/i2"/><trkseg>
<trkpt lat="50.381511" lon="3.884304"><time>2026-05-02T17:26:05Z</time></trkpt>
<trkpt lat="50.383172" lon="3.884590"><time>2026-05-02T17:36:05Z</time></trkpt>
<trkpt lat="50.384609" lon="3.883367"><time>2026-05-02T17:46:05Z</time></trkpt>
</trkseg>
</trk>
<trk>
<name>hfmsbi3</name>
<cmt>q</cmt>
<desc>Sars-la-Bruyère Chemin n°i3 </desc>
<link href="https://chemins.be/sarslabruyere/chemin/i3"/><trkseg>
<trkpt lat="50.384308" lon="3.886864"><time>2026-05-02T17:26:05Z</time></trkpt>
<trkpt lat="50.382501" lon="3.888838"><time>2026-05-02T17:36:05Z</time></trkpt>
<trkpt lat="50.381791" lon="3.889979"><time>2026-05-02T17:46:05Z</time></trkpt>
<trkpt lat="50.381325" lon="3.890727"><time>2026-05-02T17:56:05Z</time></trkpt>
<trkpt lat="50.380175" lon="3.891885"><time>2026-05-02T18:06:05Z</time></trkpt>
<trkpt lat="50.378232" lon="3.892829"><time>2026-05-02T18:16:05Z</time></trkpt>
<trkpt lat="50.377028" lon="3.895619"><time>2026-05-02T18:26:05Z</time></trkpt>
</trkseg>
</trk>
<trk>
<name>hfmsbi4</name>
<cmt>v</cmt>
<desc>Sars-la-Bruyère Chemin n°i4 </desc>
<link href="https://chemins.be/sarslabruyere/chemin/i4"/><trkseg>
<trkpt lat="50.372439" lon="3.876031"><time>2026-05-02T17:26:05Z</time></trkpt>
<trkpt lat="50.371881" lon="3.875532"><time>2026-05-02T17:36:05Z</time></trkpt>
<trkpt lat="50.371519" lon="3.875344"><time>2026-05-02T17:46:05Z</time></trkpt>
<trkpt lat="50.370554" lon="3.874802"><time>2026-05-02T17:56:05Z</time></trkpt>
<trkpt lat="50.369049" lon="3.874177"><time>2026-05-02T18:06:05Z</time></trkpt>
</trkseg></trk>
<trk>
<name>hfmsbi4</name>
<cmt>q</cmt>
<desc>Sars-la-Bruyère Chemin n°i4 </desc>
<link href="https://chemins.be/sarslabruyere/chemin/i4"/><trkseg>
<trkpt lat="50.369049" lon="3.874177"><time>2026-05-02T18:06:05Z</time></trkpt>
<trkpt lat="50.368357" lon="3.874242"><time>2026-05-02T18:16:05Z</time></trkpt>
<trkpt lat="50.365777" lon="3.875351"><time>2026-05-02T18:26:05Z</time></trkpt>
<trkpt lat="50.365114" lon="3.875636"><time>2026-05-02T18:36:05Z</time></trkpt>
<trkpt lat="50.364869" lon="3.875952"><time>2026-05-02T18:46:05Z</time></trkpt>
</trkseg></trk>
<trk>
<name>hfmsbi4</name>
<cmt>v</cmt>
<desc>Sars-la-Bruyère Chemin n°i4 </desc>
<link href="https://chemins.be/sarslabruyere/chemin/i4"/><trkseg>
<trkpt lat="50.364869" lon="3.875952"><time>2026-05-02T18:46:05Z</time></trkpt>
<trkpt lat="50.364636" lon="3.876504"><time>2026-05-02T18:56:05Z</time></trkpt>
<trkpt lat="50.364409" lon="3.877889"><time>2026-05-02T19:06:05Z</time></trkpt>
</trkseg>
</trk>
<trk>
<name>hfmsbi5</name>
<cmt>v</cmt>
<desc>Sars-la-Bruyère Chemin n°i5 </desc>
<link href="https://chemins.be/sarslabruyere/chemin/i5"/><trkseg>
<trkpt lat="50.356118" lon="3.863840"><time>2026-05-02T17:26:05Z</time></trkpt>
<trkpt lat="50.353836" lon="3.860121"><time>2026-05-02T17:36:05Z</time></trkpt>
<trkpt lat="50.356691" lon="3.849694"><time>2026-05-02T17:46:05Z</time></trkpt>
<trkpt lat="50.357384" lon="3.847160"><time>2026-05-02T17:56:05Z</time></trkpt>
<trkpt lat="50.357706" lon="3.846059"><time>2026-05-02T18:06:05Z</time></trkpt>
<trkpt lat="50.357626" lon="3.845894"><time>2026-05-02T18:16:05Z</time></trkpt>
<trkpt lat="50.357014" lon="3.845379"><time>2026-05-02T18:26:05Z</time></trkpt>
</trkseg>
</trk>
<trk>
<name>hfmsbi6</name>
<cmt>v</cmt>
<desc>Sars-la-Bruyère Chemin n°i6 </desc>
<link href="https://chemins.be/sarslabruyere/chemin/i6"/><trkseg>
<trkpt lat="50.359066" lon="3.851266"><time>2026-05-02T17:26:05Z</time></trkpt>
<trkpt lat="50.356693" lon="3.849692"><time>2026-05-02T17:36:05Z</time></trkpt>
</trkseg>
</trk>
<trk>
<name>hfmsbi7</name>
<cmt>v</cmt>
<desc>Sars-la-Bruyère Chemin n°i7 Allée Degorge</desc>
<link href="https://chemins.be/sarslabruyere/chemin/i7"/><trkseg>
<trkpt lat="50.372124" lon="3.852772"><time>2026-05-02T17:26:05Z</time></trkpt>
<trkpt lat="50.366918" lon="3.856681"><time>2026-05-02T17:36:05Z</time></trkpt>
<trkpt lat="50.365417" lon="3.857807"><time>2026-05-02T17:46:05Z</time></trkpt>
<trkpt lat="50.366631" lon="3.860553"><time>2026-05-02T17:56:05Z</time></trkpt>
</trkseg>
</trk>
</gpx>